Time,TemperatureF,DewpointF,PressureIn,WindDirection,WindDirectionDegrees,WindSpeedMPH,WindSpeedGustMPH,Humidity,HourlyPrecipIn,Conditions,Clouds,dailyrainin,SoftwareType,DateUTC
2013-01-08 00:00:00,28.7,26.4,30.44,ESE,107,0.0,0.0,91,0.00,,,0.00,WeatherTracker,2013-01-08 05:00:00,
2013-01-08 00:01:00,28.7,26.4,30.44,ESE,107,0.0,0.0,91,0.00,,,0.00,WeatherTracker,2013-01-08 05:01:00,
2013-01-08 00:02:00,28.8,26.5,30.44,ESE,107,0.0,0.0,91,0.00,,,0.00,WeatherTracker,2013-01-08 05:02:00,
2013-01-08 00:05:00,28.8,26.5,30.45,ESE,107,0.0,0.0,91,0.00,,,0.00,WeatherTracker,2013-01-08 05:05:00,
2013-01-08 00:06:00,28.8,26.5,30.45,ESE,107,0.0,0.0,91,0.00,,,0.00,WeatherTracker,2013-01-08 05:06:00,
2013-01-08 00:07:00,28.8,26.5,30.45,ESE,107,1.0,0.0,91,0.00,,,0.00,WeatherTracker,2013-01-08 05:07:00,
2013-01-08 00:11:00,28.6,26.3,30.45,ESE,107,1.0,0.0,91,0.00,,,0.00,WeatherTracker,2013-01-08 05:11:00,
2013-01-08 00:12:00,28.5,26.2,30.45,ESE,107,2.0,0.0,91,0.00,,,0.00,WeatherTracker,2013-01-08 05:12:00,
2013-01-08 00:16:00,28.3,26.0,30.45,ESE,107,2.0,0.0,91,0.00,,,0.00,WeatherTracker,2013-01-08 05:16:00,
2013-01-08 00:18:00,28.2,25.9,30.46,ESE,107,1.0,0.0,91,0.00,,,0.00,WeatherTracker,2013-01-08 05:18:00,
2013-01-08 00:21:00,28.2,26.2,30.46,ESE,107,1.0,0.0,92,0.00,,,0.00,WeatherTracker,2013-01-08 05:21:00,
2013-01-08 00:22:00,28.2,26.2,30.45,ESE,107,1.0,0.0,92,0.00,,,0.00,WeatherTracker,2013-01-08 05:22:00,
2013-01-08 00:24:00,28.3,26.3,30.46,ESE,107,1.0,0.0,92,0.00,,,0.00,WeatherTracker,2013-01-08 05:24:00,
2013-01-08 00:27:00,28.4,26.4,30.46,ESE,107,1.0,0.0,92,0.00,,,0.00,WeatherTracker,2013-01-08 05:27:00,
2013-01-08 00:29:00,28.5,26.5,30.46,ESE,107,0.0,0.0,92,0.00,,,0.00,WeatherTracker,2013-01-08 05:29:00,
2013-01-08 00:32:00,28.7,26.7,30.46,ESE,107,1.0,0.0,92,0.00,,,0.00,WeatherTracker,2013-01-08 05:32:00,
2013-01-08 00:35:00,28.8,26.8,30.45,ESE,107,0.0,0.0,92,0.00,,,0.00,WeatherTracker,2013-01-08 05:35:00,
2013-01-08 00:37:00,28.8,26.8,30.45,ESE,107,0.0,0.0,92,0.00,,,0.00,WeatherTracker,2013-01-08 05:37:00,
2013-01-08 00:38:00,28.8,26.5,30.45,ESE,107,1.0,0.0,91,0.00,,,0.00,WeatherTracker,2013-01-08 05:38:00,
2013-01-08 00:39:00,28.7,26.4,30.45,ESE,107,0.0,0.0,91,0.00,,,0.00,WeatherTracker,2013-01-08 05:39:00,
2013-01-08 00:41:00,28.7,26.4,30.45,ESE,107,0.0,0.0,91,0.00,,,0.00,WeatherTracker,2013-01-08 05:41:00,
2013-01-08 00:43:00,28.7,26.4,30.45,ESE,107,0.0,0.0,91,0.00,,,0.00,WeatherTracker,2013-01-08 05:43:00,
2013-01-08 00:44:00,28.6,26.3,30.45,ESE,107,0.0,0.0,91,0.00,,,0.00,WeatherTracker,2013-01-08 05:44:00,
2013-01-08 00:46:00,28.5,26.2,30.45,ESE,107,1.0,0.0,91,0.00,,,0.00,WeatherTracker,2013-01-08 05:46:00,
2013-01-08 00:48:00,28.4,26.1,30.46,ESE,107,1.0,0.0,91,0.00,,,0.00,WeatherTracker,2013-01-08 05:48:00,
2013-01-08 00:49:00,28.3,26.0,30.46,ESE,107,1.0,0.0,91,0.00,,,0.00,WeatherTracker,2013-01-08 05:49:00,
2013-01-08 00:50:00,28.2,25.9,30.46,ESE,107,0.0,0.0,91,0.00,,,0.00,WeatherTracker,2013-01-08 05:50:00,
2013-01-08 00:51:00,28.1,25.8,30.46,ESE,107,1.0,0.0,91,0.00,,,0.00,WeatherTracker,2013-01-08 05:51:00,
2013-01-08 00:53:00,27.9,25.6,30.46,ESE,107,1.0,0.0,91,0.00,,,0.00,WeatherTracker,2013-01-08 05:53:00,
2013-01-08 00:54:00,27.9,25.6,30.46,ESE,107,1.0,0.0,91,0.00,,,0.00,WeatherTracker,2013-01-08 05:54:00,
2013-01-08 00:55:00,27.8,25.5,30.46,ESE,107,1.0,0.0,91,0.00,,,0.00,WeatherTracker,2013-01-08 05:55:00,
2013-01-08 00:57:00,27.8,25.5,30.46,ESE,107,0.0,0.0,91,0.00,,,0.00,WeatherTracker,2013-01-08 05:57:00,
2013-01-08 00:59:00,27.8,25.8,30.46,ESE,107,0.0,0.0,92,0.00,,,0.00,WeatherTracker,2013-01-08 05:59:00,
2013-01-08 01:01:00,27.8,25.8,30.46,ESE,107,0.0,0.0,92,0.00,,,0.00,WeatherTracker,2013-01-08 06:01:00,
2013-01-08 01:03:00,27.9,25.9,30.46,ESE,107,0.0,0.0,92,0.00,,,0.00,WeatherTracker,2013-01-08 06:03:00,
2013-01-08 01:04:00,28.0,26.0,30.46,ESE,107,1.0,0.0,92,0.00,,,0.00,WeatherTracker,2013-01-08 06:04:00,
2013-01-08 01:05:00,28.1,26.1,30.46,ESE,107,0.0,0.0,92,0.00,,,0.00,WeatherTracker,2013-01-08 06:05:00,
2013-01-08 01:06:00,28.2,26.2,30.46,ESE,107,0.0,0.0,92,0.00,,,0.00,WeatherTracker,2013-01-08 06:06:00,
2013-01-08 01:08:00,28.2,26.2,30.46,ESE,107,1.0,0.0,92,0.00,,,0.00,WeatherTracker,2013-01-08 06:08:00,
2013-01-08 01:09:00,28.2,26.2,30.46,ESE,107,0.0,0.0,92,0.00,,,0.00,WeatherTracker,2013-01-08 06:09:00,
2013-01-08 01:10:00,28.1,26.1,30.46,ESE,107,1.0,0.0,92,0.00,,,0.00,WeatherTracker,2013-01-08 06:10:00,
2013-01-08 01:13:00,28.2,26.2,30.46,ESE,107,0.0,0.0,92,0.00,,,0.00,WeatherTracker,2013-01-08 06:13:00,
2013-01-08 01:14:00,28.2,26.2,30.46,ESE,107,0.0,0.0,92,0.00,,,0.00,WeatherTracker,2013-01-08 06:14:00,
2013-01-08 01:15:00,28.2,26.2,30.46,ESE,107,0.0,0.0,92,0.00,,,0.00,WeatherTracker,2013-01-08 06:15:00,
2013-01-08 01:18:00,28.2,26.2,30.46,ESE,107,1.0,0.0,92,0.00,,,0.00,WeatherTracker,2013-01-08 06:18:00,
2013-01-08 01:19:00,28.1,26.1,30.46,ESE,107,1.0,0.0,92,0.00,,,0.00,WeatherTracker,2013-01-08 06:19:00,
2013-01-08 01:20:00,28.1,25.8,30.46,ESE,107,1.0,0.0,91,0.00,,,0.00,WeatherTracker,2013-01-08 06:20:00,
2013-01-08 01:21:00,28.1,25.8,30.46,ESE,107,1.0,0.0,91,0.00,,,0.00,WeatherTracker,2013-01-08 06:21:00,
2013-01-08 01:23:00,28.0,25.7,30.46,ESE,107,0.0,0.0,91,0.00,,,0.00,WeatherTracker,2013-01-08 06:23:00,
2013-01-08 01:25:00,28.0,25.7,30.46,ESE,107,0.0,0.0,91,0.00,,,0.00,WeatherTracker,2013-01-08 06:25:00,
2013-01-08 01:26:00,27.9,25.6,30.46,ESE,107,0.0,0.0,91,0.00,,,0.00,WeatherTracker,2013-01-08 06:26:00,
2013-01-08 01:28:00,27.9,25.6,30.46,ESE,107,0.0,0.0,91,0.00,,,0.00,WeatherTracker,2013-01-08 06:28:00,
2013-01-08 01:31:00,27.9,25.6,30.46,ESE,107,2.0,0.0,91,0.00,,,0.00,WeatherTracker,2013-01-08 06:31:00,
2013-01-08 01:34:00,27.9,25.6,30.46,ESE,107,0.0,0.0,91,0.00,,,0.00,WeatherTracker,2013-01-08 06:34:00,
2013-01-08 01:36:00,27.9,25.6,30.46,ESE,107,0.0,0.0,91,0.00,,,0.00,WeatherTracker,2013-01-08 06:36:00,
2013-01-08 01:37:00,27.9,25.6,30.46,ESE,107,0.0,0.0,91,0.00,,,0.00,WeatherTracker,2013-01-08 06:37:00,
2013-01-08 01:40:00,27.8,25.5,30.46,ESE,107,0.0,0.0,91,0.00,,,0.00,WeatherTracker,2013-01-08 06:40:00,
2013-01-08 01:41:00,27.8,25.5,30.46,ESE,107,0.0,0.0,91,0.00,,,0.00,WeatherTracker,2013-01-08 06:41:00,
2013-01-08 01:42:00,27.7,25.4,30.46,ESE,107,0.0,0.0,91,0.00,,,0.00,WeatherTracker,2013-01-08 06:42:00,
2013-01-08 01:46:00,27.6,25.3,30.46,ESE,107,0.0,0.0,91,0.00,,,0.00,WeatherTracker,2013-01-08 06:46:00,
2013-01-08 01:47:00,27.5,25.2,30.46,ESE,107,0.0,0.0,91,0.00,,,0.00,WeatherTracker,2013-01-08 06:47:00,
2013-01-08 01:48:00,27.5,25.2,30.46,ESE,107,0.0,0.0,91,0.00,,,0.00,WeatherTracker,2013-01-08 06:48:00,
2013-01-08 01:52:00,27.5,25.2,30.46,ESE,107,0.0,0.0,91,0.00,,,0.00,WeatherTracker,2013-01-08 06:52:00,
2013-01-08 01:53:00,27.4,25.4,30.46,ESE,107,0.0,0.0,92,0.00,,,0.00,WeatherTracker,2013-01-08 06:53:00,
2013-01-08 01:57:00,27.3,25.3,30.46,ESE,107,0.0,0.0,92,0.00,,,0.00,WeatherTracker,2013-01-08 06:57:00,
2013-01-08 01:58:00,27.3,25.3,30.46,ESE,107,0.0,0.0,92,0.00,,,0.00,WeatherTracker,2013-01-08 06:58:00,
2013-01-08 01:59:00,27.2,25.2,30.46,ESE,107,0.0,0.0,92,0.00,,,0.00,WeatherTracker,2013-01-08 06:59:00,
2013-01-08 02:02:00,27.2,25.2,30.46,ESE,107,0.0,0.0,92,0.00,,,0.00,WeatherTracker,2013-01-08 07:02:00,
2013-01-08 02:03:00,27.2,25.2,30.46,ESE,107,0.0,0.0,92,0.00,,,0.00,WeatherTracker,2013-01-08 07:03:00,
2013-01-08 02:05:00,27.2,25.2,30.46,ESE,107,0.0,0.0,92,0.00,,,0.00,WeatherTracker,2013-01-08 07:05:00,
2013-01-08 02:08:00,27.3,25.3,30.46,ESE,107,0.0,0.0,92,0.00,,,0.00,WeatherTracker,2013-01-08 07:08:00,
2013-01-08 02:09:00,27.4,25.4,30.46,ESE,107,0.0,0.0,92,0.00,,,0.00,WeatherTracker,2013-01-08 07:09:00,
2013-01-08 02:10:00,27.4,25.4,30.46,ESE,107,0.0,0.0,92,0.00,,,0.00,WeatherTracker,2013-01-08 07:10:00,
2013-01-08 02:14:00,27.5,25.5,30.45,ESE,107,0.0,0.0,92,0.00,,,0.00,WeatherTracker,2013-01-08 07:14:00,
2013-01-08 02:15:00,27.4,25.4,30.45,ESE,107,0.0,0.0,92,0.00,,,0.00,WeatherTracker,2013-01-08 07:15:00,
2013-01-08 02:19:00,27.4,25.4,30.45,ESE,107,0.0,0.0,92,0.00,,,0.00,WeatherTracker,2013-01-08 07:19:00,
2013-01-08 02:20:00,27.5,25.5,30.45,ESE,107,0.0,0.0,92,0.00,,,0.00,WeatherTracker,2013-01-08 07:20:00,
2013-01-08 02:24:00,27.6,25.6,30.45,ESE,107,1.0,0.0,92,0.00,,,0.00,WeatherTracker,2013-01-08 07:24:00,
2013-01-08 02:25:00,27.5,25.5,30.45,ESE,107,1.0,0.0,92,0.00,,,0.00,WeatherTracker,2013-01-08 07:25:00,
2013-01-08 02:27:00,27.4,25.4,30.45,ESE,107,1.0,0.0,92,0.00,,,0.00,WeatherTracker,2013-01-08 07:27:00,
2013-01-08 02:30:00,27.2,24.9,30.45,ESE,107,0.0,0.0,91,0.00,,,0.00,WeatherTracker,2013-01-08 07:30:00,
2013-01-08 02:32:00,27.1,25.1,30.45,ESE,107,0.0,0.0,92,0.00,,,0.00,WeatherTracker,2013-01-08 07:32:00,
2013-01-08 02:35:00,27.2,25.2,30.45,ESE,107,0.0,0.0,92,0.00,,,0.00,WeatherTracker,2013-01-08 07:35:00,
2013-01-08 02:36:00,27.1,25.1,30.45,ESE,107,1.0,0.0,92,0.00,,,0.00,WeatherTracker,2013-01-08 07:36:00,
2013-01-08 02:38:00,27.0,25.0,30.46,ESE,108,0.0,0.0,92,0.00,,,0.00,WeatherTracker,2013-01-08 07:38:00,
2013-01-08 02:41:00,27.0,24.7,30.45,ESE,108,0.0,0.0,91,0.00,,,0.00,WeatherTracker,2013-01-08 07:41:00,
2013-01-08 02:43:00,26.9,24.6,30.45,ESE,108,1.0,0.0,91,0.00,,,0.00,WeatherTracker,2013-01-08 07:43:00,
2013-01-08 02:46:00,26.8,24.5,30.46,ESE,108,0.0,0.0,91,0.00,,,0.00,WeatherTracker,2013-01-08 07:46:00,
2013-01-08 02:47:00,26.7,24.4,30.46,ESE,108,1.0,0.0,91,0.00,,,0.00,WeatherTracker,2013-01-08 07:47:00,
2013-01-08 02:48:00,26.6,24.6,30.46,ESE,108,0.0,0.0,92,0.00,,,0.00,WeatherTracker,2013-01-08 07:48:00,
2013-01-08 02:51:00,26.5,24.5,30.46,ESE,108,1.0,0.0,92,0.00,,,0.00,WeatherTracker,2013-01-08 07:51:00,
2013-01-08 02:52:00,26.5,24.5,30.46,ESE,108,0.0,0.0,92,0.00,,,0.00,WeatherTracker,2013-01-08 07:52:00,
2013-01-08 02:53:00,26.4,24.4,30.46,ESE,108,0.0,0.0,92,0.00,,,0.00,WeatherTracker,2013-01-08 07:53:00,
2013-01-08 02:54:00,26.5,24.5,30.46,ESE,108,1.0,0.0,92,0.00,,,0.00,WeatherTracker,2013-01-08 07:54:00,
2013-01-08 02:56:00,26.6,24.6,30.46,ESE,108,0.0,0.0,92,0.00,,,0.00,WeatherTracker,2013-01-08 07:56:00,
2013-01-08 02:58:00,26.6,24.6,30.46,ESE,108,0.0,0.0,92,0.00,,,0.00,WeatherTracker,2013-01-08 07:58:00,
2013-01-08 02:59:00,26.6,24.6,30.46,ESE,108,0.0,0.0,92,0.00,,,0.00,WeatherTracker,2013-01-08 07:59:00,
2013-01-08 03:01:00,26.7,25.0,30.46,ESE,108,0.0,0.0,93,0.00,,,0.00,WeatherTracker,2013-01-08 08:01:00,
2013-01-08 03:03:00,26.6,24.9,30.46,ESE,108,0.0,0.0,93,0.00,,,0.00,WeatherTracker,2013-01-08 08:03:00,
2013-01-08 03:04:00,26.6,24.9,30.46,ESE,108,0.0,0.0,93,0.00,,,0.00,WeatherTracker,2013-01-08 08:04:00,
2013-01-08 03:05:00,26.6,24.9,30.46,ESE,108,0.0,0.0,93,0.00,,,0.00,WeatherTracker,2013-01-08 08:05:00,
2013-01-08 03:07:00,26.8,25.1,30.46,ESE,108,0.0,0.0,93,0.00,,,0.00,WeatherTracker,2013-01-08 08:07:00,
2013-01-08 03:08:00,26.9,25.2,30.46,ESE,108,0.0,0.0,93,0.00,,,0.00,WeatherTracker,2013-01-08 08:08:00,
2013-01-08 03:10:00,26.9,25.2,30.46,ESE,108,0.0,0.0,93,0.00,,,0.00,WeatherTracker,2013-01-08 08:10:00,
2013-01-08 03:12:00,26.9,25.2,30.46,ESE,108,0.0,0.0,93,0.00,,,0.00,WeatherTracker,2013-01-08 08:12:00,
2013-01-08 03:14:00,26.9,25.2,30.46,ESE,108,0.0,0.0,93,0.00,,,0.00,WeatherTracker,2013-01-08 08:14:00,
2013-01-08 03:15:00,26.9,25.2,30.46,ESE,108,0.0,0.0,93,0.00,,,0.00,WeatherTracker,2013-01-08 08:15:00,
2013-01-08 03:16:00,26.9,25.2,30.46,ESE,108,0.0,0.0,93,0.00,,,0.00,WeatherTracker,2013-01-08 08:16:00,
2013-01-08 03:17:00,26.9,25.2,30.46,ESE,108,0.0,0.0,93,0.00,,,0.00,WeatherTracker,2013-01-08 08:17:00,
2013-01-08 03:19:00,26.8,25.1,30.46,ESE,108,0.0,0.0,93,0.00,,,0.00,WeatherTracker,2013-01-08 08:19:00,
2013-01-08 03:20:00,26.8,25.1,30.46,ESE,108,0.0,0.0,93,0.00,,,0.00,WeatherTracker,2013-01-08 08:20:00,
2013-01-08 03:21:00,26.8,25.1,30.45,ESE,108,0.0,0.0,93,0.00,,,0.00,WeatherTracker,2013-01-08 08:21:00,
2013-01-08 03:23:00,26.8,25.1,30.45,ESE,108,0.0,0.0,93,0.00,,,0.00,WeatherTracker,2013-01-08 08:23:00,
2013-01-08 03:25:00,26.8,25.1,30.46,ESE,108,0.0,0.0,93,0.00,,,0.00,WeatherTracker,2013-01-08 08:25:00,
2013-01-08 03:27:00,26.8,25.1,30.46,ESE,108,0.0,0.0,93,0.00,,,0.00,WeatherTracker,2013-01-08 08:27:00,
2013-01-08 03:28:00,26.9,25.2,30.46,ESE,108,0.0,0.0,93,0.00,,,0.00,WeatherTracker,2013-01-08 08:28:00,
2013-01-08 03:30:00,26.8,25.1,30.45,ESE,108,0.0,0.0,93,0.00,,,0.00,WeatherTracker,2013-01-08 08:30:00,
2013-01-08 03:32:00,26.7,25.0,30.45,ESE,108,0.0,0.0,93,0.00,,,0.00,WeatherTracker,2013-01-08 08:32:00,
2013-01-08 03:33:00,26.6,24.9,30.45,ESE,108,1.0,0.0,93,0.00,,,0.00,WeatherTracker,2013-01-08 08:33:00,
2013-01-08 03:35:00,26.5,24.5,30.45,ESE,108,1.0,0.0,92,0.00,,,0.00,WeatherTracker,2013-01-08 08:35:00,
2013-01-08 03:36:00,26.5,24.5,30.45,ESE,108,1.0,0.0,92,0.00,,,0.00,WeatherTracker,2013-01-08 08:36:00,
2013-01-08 03:37:00,26.4,24.4,30.45,ESE,108,1.0,0.0,92,0.00,,,0.00,WeatherTracker,2013-01-08 08:37:00,
2013-01-08 03:38:00,26.4,24.7,30.45,ESE,108,1.0,0.0,93,0.00,,,0.00,WeatherTracker,2013-01-08 08:38:00,
2013-01-08 03:41:00,26.4,24.7,30.45,ESE,108,1.0,0.0,93,0.00,,,0.00,WeatherTracker,2013-01-08 08:41:00,
2013-01-08 03:42:00,26.4,24.7,30.45,ESE,108,1.0,0.0,93,0.00,,,0.00,WeatherTracker,2013-01-08 08:42:00,
2013-01-08 03:44:00,26.4,24.7,30.45,ESE,108,1.0,0.0,93,0.00,,,0.00,WeatherTracker,2013-01-08 08:44:00,
2013-01-08 03:46:00,26.2,24.5,30.45,ESE,108,1.0,0.0,93,0.00,,,0.00,WeatherTracker,2013-01-08 08:46:00,
2013-01-08 03:48:00,26.1,24.4,30.45,ESE,108,1.0,0.0,93,0.00,,,0.00,WeatherTracker,2013-01-08 08:48:00,
2013-01-08 03:49:00,26.1,24.4,30.45,ESE,108,1.0,0.0,93,0.00,,,0.00,WeatherTracker,2013-01-08 08:49:00,
2013-01-08 03:51:00,26.1,24.4,30.45,ESE,108,1.0,0.0,93,0.00,,,0.00,WeatherTracker,2013-01-08 08:51:00,
2013-01-08 03:54:00,26.0,24.3,30.45,ESE,109,0.0,0.0,93,0.00,,,0.00,WeatherTracker,2013-01-08 08:54:00,
2013-01-08 03:56:00,26.0,24.3,30.45,ESE,109,0.0,0.0,93,0.00,,,0.00,WeatherTracker,2013-01-08 08:56:00,
2013-01-08 03:59:00,26.1,24.4,30.45,ESE,109,0.0,0.0,93,0.00,,,0.00,WeatherTracker,2013-01-08 08:59:00,
2013-01-08 04:00:00,26.1,24.4,30.45,ESE,109,0.0,0.0,93,0.00,,,0.00,WeatherTracker,2013-01-08 09:00:00,
2013-01-08 04:01:00,26.1,24.4,30.45,ESE,109,0.0,0.0,93,0.00,,,0.00,WeatherTracker,2013-01-08 09:01:00,
2013-01-08 04:02:00,26.2,24.5,30.45,ESE,109,0.0,0.0,93,0.00,,,0.00,WeatherTracker,2013-01-08 09:02:00,
2013-01-08 04:04:00,26.1,24.4,30.45,ESE,109,0.0,0.0,93,0.00,,,0.00,WeatherTracker,2013-01-08 09:04:00,
2013-01-08 04:05:00,26.0,24.3,30.45,ESE,109,0.0,0.0,93,0.00,,,0.00,WeatherTracker,2013-01-08 09:05:00,
2013-01-08 04:07:00,26.0,24.3,30.45,ESE,109,0.0,0.0,93,0.00,,,0.00,WeatherTracker,2013-01-08 09:07:00,
2013-01-08 04:10:00,26.0,24.3,30.45,ESE,109,0.0,0.0,93,0.00,,,0.00,WeatherTracker,2013-01-08 09:10:00,
2013-01-08 04:12:00,25.9,24.2,30.45,ESE,109,0.0,0.0,93,0.00,,,0.00,WeatherTracker,2013-01-08 09:12:00,
2013-01-08 04:13:00,25.8,24.1,30.45,ESE,109,0.0,0.0,93,0.00,,,0.00,WeatherTracker,2013-01-08 09:13:00,
2013-01-08 04:15:00,25.8,24.1,30.45,ESE,109,0.0,0.0,93,0.00,,,0.00,WeatherTracker,2013-01-08 09:15:00,
2013-01-08 04:18:00,25.8,24.1,30.45,ESE,109,0.0,0.0,93,0.00,,,0.00,WeatherTracker,2013-01-08 09:18:00,
2013-01-08 04:19:00,25.7,24.0,30.45,ESE,109,0.0,0.0,93,0.00,,,0.00,WeatherTracker,2013-01-08 09:19:00,
2013-01-08 04:20:00,25.7,23.7,30.45,ESE,109,0.0,0.0,92,0.00,,,0.00,WeatherTracker,2013-01-08 09:20:00,
2013-01-08 04:21:00,25.7,23.7,30.45,ESE,109,0.0,0.0,92,0.00,,,0.00,WeatherTracker,2013-01-08 09:21:00,
2013-01-08 04:23:00,25.7,23.7,30.44,ESE,109,1.0,0.0,92,0.00,,,0.00,WeatherTracker,2013-01-08 09:23:00,
2013-01-08 04:24:00,25.7,23.7,30.44,ESE,109,1.0,0.0,92,0.00,,,0.00,WeatherTracker,2013-01-08 09:24:00,
2013-01-08 04:26:00,25.7,24.0,30.44,ESE,109,0.0,0.0,93,0.00,,,0.00,WeatherTracker,2013-01-08 09:26:00,
2013-01-08 04:27:00,25.8,24.1,30.45,ESE,109,1.0,0.0,93,0.00,,,0.00,WeatherTracker,2013-01-08 09:27:00,
2013-01-08 04:29:00,25.8,24.1,30.45,ESE,109,0.0,0.0,93,0.00,,,0.00,WeatherTracker,2013-01-08 09:29:00,
2013-01-08 04:31:00,25.8,23.8,30.45,ESE,109,0.0,0.0,92,0.00,,,0.00,WeatherTracker,2013-01-08 09:31:00,
2013-01-08 04:32:00,25.8,23.8,30.45,ESE,109,0.0,0.0,92,0.00,,,0.00,WeatherTracker,2013-01-08 09:32:00,
2013-01-08 04:35:00,25.8,23.8,30.45,ESE,109,0.0,0.0,92,0.00,,,0.00,WeatherTracker,2013-01-08 09:35:00,
2013-01-08 04:36:00,25.8,23.8,30.45,ESE,109,0.0,0.0,92,0.00,,,0.00,WeatherTracker,2013-01-08 09:36:00,
2013-01-08 04:39:00,25.8,23.8,30.44,ESE,109,0.0,0.0,92,0.00,,,0.00,WeatherTracker,2013-01-08 09:39:00,
2013-01-08 04:40:00,25.8,23.8,30.44,ESE,109,0.0,0.0,92,0.00,,,0.00,WeatherTracker,2013-01-08 09:40:00,
2013-01-08 04:41:00,25.8,23.8,30.44,ESE,109,1.0,0.0,92,0.00,,,0.00,WeatherTracker,2013-01-08 09:41:00,
2013-01-08 04:42:00,25.8,23.8,30.44,ESE,109,1.0,0.0,92,0.00,,,0.00,WeatherTracker,2013-01-08 09:42:00,
2013-01-08 04:44:00,25.8,23.8,30.44,ESE,109,0.0,0.0,92,0.00,,,0.00,WeatherTracker,2013-01-08 09:44:00,
2013-01-08 04:45:00,25.8,23.8,30.44,ESE,109,0.0,0.0,92,0.00,,,0.00,WeatherTracker,2013-01-08 09:45:00,
2013-01-08 04:47:00,25.8,23.8,30.44,ESE,109,0.0,0.0,92,0.00,,,0.00,WeatherTracker,2013-01-08 09:47:00,
2013-01-08 04:48:00,25.8,23.8,30.44,ESE,109,0.0,0.0,92,0.00,,,0.00,WeatherTracker,2013-01-08 09:48:00,
2013-01-08 04:49:00,25.8,23.8,30.44,ESE,109,0.0,0.0,92,0.00,,,0.00,WeatherTracker,2013-01-08 09:49:00,
2013-01-08 04:50:00,25.8,23.8,30.44,ESE,109,0.0,0.0,92,0.00,,,0.00,WeatherTracker,2013-01-08 09:50:00,
2013-01-08 04:53:00,25.8,23.8,30.44,ESE,109,0.0,0.0,92,0.00,,,0.00,WeatherTracker,2013-01-08 09:53:00,
2013-01-08 04:54:00,25.8,23.8,30.43,ESE,109,0.0,0.0,92,0.00,,,0.00,WeatherTracker,2013-01-08 09:54:00,
2013-01-08 04:55:00,25.8,23.8,30.43,ESE,109,0.0,0.0,92,0.00,,,0.00,WeatherTracker,2013-01-08 09:55:00,
2013-01-08 04:58:00,25.8,23.8,30.44,ESE,109,0.0,0.0,92,0.00,,,0.00,WeatherTracker,2013-01-08 09:58:00,
2013-01-08 05:00:00,25.8,23.8,30.44,ESE,109,1.0,0.0,92,0.00,,,0.00,WeatherTracker,2013-01-08 10:00:00,
2013-01-08 05:03:00,25.6,23.6,30.44,ESE,109,0.0,0.0,92,0.00,,,0.00,WeatherTracker,2013-01-08 10:03:00,
2013-01-08 05:05:00,25.6,23.6,30.44,ESE,109,1.0,0.0,92,0.00,,,0.00,WeatherTracker,2013-01-08 10:05:00,
2013-01-08 05:06:00,25.6,23.6,30.45,ESE,113,2.0,0.0,92,0.00,,,0.00,WeatherTracker,2013-01-08 10:06:00,
2013-01-08 05:09:00,25.6,23.6,30.45,South,177,2.0,0.0,92,0.00,,,0.00,WeatherTracker,2013-01-08 10:09:00,
2013-01-08 05:10:00,25.5,23.5,30.45,South,177,1.0,0.0,92,0.00,,,0.00,WeatherTracker,2013-01-08 10:10:00,
2013-01-08 05:11:00,25.5,23.5,30.45,South,177,1.0,0.0,92,0.00,,,0.00,WeatherTracker,2013-01-08 10:11:00,
2013-01-08 05:14:00,25.5,23.5,30.45,South,177,0.0,0.0,92,0.00,,,0.00,WeatherTracker,2013-01-08 10:14:00,
2013-01-08 05:16:00,25.4,23.4,30.45,SW,231,2.0,0.0,92,0.00,,,0.00,WeatherTracker,2013-01-08 10:16:00,
2013-01-08 05:17:00,25.4,23.4,30.45,SW,231,1.0,0.0,92,0.00,,,0.00,WeatherTracker,2013-01-08 10:17:00,
2013-01-08 05:19:00,25.4,23.7,30.45,SW,231,1.0,0.0,93,0.00,,,0.00,WeatherTracker,2013-01-08 10:19:00,
2013-01-08 05:21:00,25.5,23.8,30.45,SW,231,0.0,0.0,93,0.00,,,0.00,WeatherTracker,2013-01-08 10:21:00,
2013-01-08 05:22:00,25.6,23.9,30.45,SW,231,0.0,0.0,93,0.00,,,0.00,WeatherTracker,2013-01-08 10:22:00,
2013-01-08 05:25:00,25.9,24.2,30.45,SW,231,1.0,0.0,93,0.00,,,0.00,WeatherTracker,2013-01-08 10:25:00,
2013-01-08 05:27:00,26.0,24.3,30.45,SW,231,0.0,0.0,93,0.00,,,0.00,WeatherTracker,2013-01-08 10:27:00,
2013-01-08 05:28:00,26.1,24.4,30.45,SW,231,0.0,0.0,93,0.00,,,0.00,WeatherTracker,2013-01-08 10:28:00,
2013-01-08 05:31:00,26.3,24.6,30.45,SW,231,0.0,0.0,93,0.00,,,0.00,WeatherTracker,2013-01-08 10:31:00,
2013-01-08 05:32:00,26.3,24.6,30.45,SW,231,1.0,0.0,93,0.00,,,0.00,WeatherTracker,2013-01-08 10:32:00,
2013-01-08 05:33:00,26.3,24.6,30.46,SW,231,0.0,0.0,93,0.00,,,0.00,WeatherTracker,2013-01-08 10:33:00,
2013-01-08 05:36:00,26.4,24.7,30.45,SW,231,0.0,0.0,93,0.00,,,0.00,WeatherTracker,2013-01-08 10:36:00,
2013-01-08 05:37:00,26.4,24.7,30.46,SW,231,0.0,0.0,93,0.00,,,0.00,WeatherTracker,2013-01-08 10:37:00,
2013-01-08 05:38:00,26.4,24.7,30.46,SW,231,0.0,0.0,93,0.00,,,0.00,WeatherTracker,2013-01-08 10:38:00,
2013-01-08 05:41:00,26.5,24.8,30.46,SW,231,0.0,0.0,93,0.00,,,0.00,WeatherTracker,2013-01-08 10:41:00,
2013-01-08 05:43:00,26.6,24.6,30.46,SW,231,0.0,0.0,92,0.00,,,0.00,WeatherTracker,2013-01-08 10:43:00,
2013-01-08 05:47:00,26.8,24.8,30.46,SW,231,0.0,0.0,92,0.00,,,0.00,WeatherTracker,2013-01-08 10:47:00,
2013-01-08 05:48:00,26.9,24.9,30.46,SW,231,0.0,0.0,92,0.00,,,0.00,WeatherTracker,2013-01-08 10:48:00,
2013-01-08 05:49:00,26.9,24.9,30.45,SW,231,0.0,0.0,92,0.00,,,0.00,WeatherTracker,2013-01-08 10:49:00,
2013-01-08 05:52:00,27.1,25.1,30.45,SW,231,0.0,0.0,92,0.00,,,0.00,WeatherTracker,2013-01-08 10:52:00,
2013-01-08 05:53:00,27.3,25.3,30.46,SW,231,0.0,0.0,92,0.00,,,0.00,WeatherTracker,2013-01-08 10:53:00,
2013-01-08 05:54:00,27.3,25.3,30.46,SW,231,0.0,0.0,92,0.00,,,0.00,WeatherTracker,2013-01-08 10:54:00,
2013-01-08 05:57:00,27.5,25.5,30.46,SW,231,0.0,0.0,92,0.00,,,0.00,WeatherTracker,2013-01-08 10:57:00,
2013-01-08 05:58:00,27.7,25.7,30.46,SW,231,0.0,0.0,92,0.00,,,0.00,WeatherTracker,2013-01-08 10:58:00,
2013-01-08 05:59:00,27.8,25.8,30.46,SW,231,0.0,0.0,92,0.00,,,0.00,WeatherTracker,2013-01-08 10:59:00,
2013-01-08 06:00:00,27.8,25.8,30.46,SW,231,0.0,0.0,92,0.00,,,0.00,WeatherTracker,2013-01-08 11:00:00,
2013-01-08 06:03:00,27.9,25.9,30.46,SW,231,0.0,0.0,92,0.00,,,0.00,WeatherTracker,2013-01-08 11:03:00,
2013-01-08 06:04:00,27.9,25.9,30.46,SW,231,0.0,0.0,92,0.00,,,0.00,WeatherTracker,2013-01-08 11:04:00,
2013-01-08 06:05:00,28.0,26.0,30.46,SW,231,0.0,0.0,92,0.00,,,0.00,WeatherTracker,2013-01-08 11:05:00,
2013-01-08 06:08:00,28.0,26.0,30.46,SW,231,0.0,0.0,92,0.00,,,0.00,WeatherTracker,2013-01-08 11:08:00,
2013-01-08 06:09:00,28.0,26.0,30.46,SW,231,0.0,0.0,92,0.00,,,0.00,WeatherTracker,2013-01-08 11:09:00,
2013-01-08 06:10:00,28.1,26.1,30.46,SW,231,0.0,0.0,92,0.00,,,0.00,WeatherTracker,2013-01-08 11:10:00,
2013-01-08 06:14:00,28.3,26.3,30.45,SW,231,1.0,0.0,92,0.00,,,0.00,WeatherTracker,2013-01-08 11:14:00,
2013-01-08 06:15:00,28.4,26.4,30.45,SW,231,0.0,0.0,92,0.00,,,0.00,WeatherTracker,2013-01-08 11:15:00,
2013-01-08 06:16:00,28.4,26.4,30.45,SW,231,0.0,0.0,92,0.00,,,0.00,WeatherTracker,2013-01-08 11:16:00,
2013-01-08 06:19:00,28.6,26.6,30.46,SW,231,0.0,0.0,92,0.00,,,0.00,WeatherTracker,2013-01-08 11:19:00,
2013-01-08 06:20:00,28.7,26.7,30.46,SW,231,0.0,0.0,92,0.00,,,0.00,WeatherTracker,2013-01-08 11:20:00,
2013-01-08 06:21:00,28.8,26.8,30.46,SW,231,0.0,0.0,92,0.00,,,0.00,WeatherTracker,2013-01-08 11:21:00,
2013-01-08 06:25:00,28.8,26.8,30.46,SW,231,0.0,0.0,92,0.00,,,0.00,WeatherTracker,2013-01-08 11:25:00,
2013-01-08 06:26:00,28.8,26.8,30.46,SW,231,1.0,0.0,92,0.00,,,0.00,WeatherTracker,2013-01-08 11:26:00,
2013-01-08 06:30:00,28.7,26.4,30.46,SW,231,0.0,0.0,91,0.00,,,0.00,WeatherTracker,2013-01-08 11:30:00,
2013-01-08 06:31:00,28.7,26.4,30.45,SW,231,1.0,0.0,91,0.00,,,0.00,WeatherTracker,2013-01-08 11:31:00,
2013-01-08 06:32:00,28.7,26.7,30.45,SW,231,0.0,0.0,92,0.00,,,0.00,WeatherTracker,2013-01-08 11:32:00,
2013-01-08 06:35:00,28.9,26.9,30.45,SW,231,0.0,0.0,92,0.00,,,0.00,WeatherTracker,2013-01-08 11:35:00,
2013-01-08 06:36:00,28.9,26.9,30.45,SW,231,0.0,0.0,92,0.00,,,0.00,WeatherTracker,2013-01-08 11:36:00,
2013-01-08 06:37:00,29.0,27.0,30.45,SW,231,0.0,0.0,92,0.00,,,0.00,WeatherTracker,2013-01-08 11:37:00,
2013-01-08 06:38:00,29.1,27.1,30.45,SW,231,0.0,0.0,92,0.00,,,0.00,WeatherTracker,2013-01-08 11:38:00,
2013-01-08 06:40:00,29.2,27.2,30.45,SW,231,1.0,0.0,92,0.00,,,0.00,WeatherTracker,2013-01-08 11:40:00,
2013-01-08 06:41:00,29.2,27.2,30.45,WSW,240,1.0,0.0,92,0.00,,,0.00,WeatherTracker,2013-01-08 11:41:00,
2013-01-08 06:42:00,29.2,27.2,30.45,WSW,253,2.0,0.0,92,0.00,,,0.00,WeatherTracker,2013-01-08 11:42:00,
2013-01-08 06:43:00,29.3,27.3,30.45,WSW,253,0.0,0.0,92,0.00,,,0.00,WeatherTracker,2013-01-08 11:43:00,
2013-01-08 06:45:00,29.4,27.4,30.45,WSW,253,2.0,0.0,92,0.00,,,0.00,WeatherTracker,2013-01-08 11:45:00,
2013-01-08 06:46:00,29.4,27.4,30.45,WSW,253,0.0,0.0,92,0.00,,,0.00,WeatherTracker,2013-01-08 11:46:00,
2013-01-08 06:48:00,29.4,27.4,30.45,WSW,253,0.0,0.0,92,0.00,,,0.00,WeatherTracker,2013-01-08 11:48:00,
2013-01-08 06:49:00,29.5,27.5,30.45,WSW,253,0.0,0.0,92,0.00,,,0.00,WeatherTracker,2013-01-08 11:49:00,
2013-01-08 06:51:00,29.4,27.4,30.45,WSW,253,0.0,0.0,92,0.00,,,0.00,WeatherTracker,2013-01-08 11:51:00,
2013-01-08 06:52:00,29.5,27.5,30.45,WSW,253,2.0,0.0,92,0.00,,,0.00,WeatherTracker,2013-01-08 11:52:00,
2013-01-08 06:53:00,29.5,27.5,30.44,WSW,253,1.0,0.0,92,0.00,,,0.00,WeatherTracker,2013-01-08 11:53:00,
2013-01-08 06:55:00,29.5,27.5,30.44,WSW,253,0.0,0.0,92,0.00,,,0.00,WeatherTracker,2013-01-08 11:55:00,
2013-01-08 06:56:00,29.5,27.5,30.45,WSW,253,0.0,0.0,92,0.00,,,0.00,WeatherTracker,2013-01-08 11:56:00,
2013-01-08 06:57:00,29.4,27.4,30.45,WSW,253,1.0,0.0,92,0.00,,,0.00,WeatherTracker,2013-01-08 11:57:00,
2013-01-08 06:59:00,29.3,27.3,30.45,WSW,253,0.0,0.0,92,0.00,,,0.00,WeatherTracker,2013-01-08 11:59:00,
2013-01-08 07:00:00,29.3,27.3,30.45,WSW,253,0.0,0.0,92,0.00,,,0.00,WeatherTracker,2013-01-08 12:00:00,
2013-01-08 07:01:00,29.3,27.3,30.45,WSW,253,0.0,0.0,92,0.00,,,0.00,WeatherTracker,2013-01-08 12:01:00,
2013-01-08 07:02:00,29.2,27.2,30.45,WSW,253,0.0,0.0,92,0.00,,,0.00,WeatherTracker,2013-01-08 12:02:00,
2013-01-08 07:04:00,29.2,27.2,30.45,WSW,253,1.0,0.0,92,0.00,,,0.00,WeatherTracker,2013-01-08 12:04:00,
2013-01-08 07:05:00,29.2,27.2,30.45,WSW,253,2.0,0.0,92,0.00,,,0.00,WeatherTracker,2013-01-08 12:05:00,
2013-01-08 07:07:00,29.2,27.2,30.45,WSW,253,0.0,0.0,92,0.00,,,0.00,WeatherTracker,2013-01-08 12:07:00,
2013-01-08 07:09:00,29.2,27.2,30.45,WSW,253,0.0,0.0,92,0.00,,,0.00,WeatherTracker,2013-01-08 12:09:00,
2013-01-08 07:10:00,29.3,27.3,30.45,WSW,253,1.0,0.0,92,0.00,,,0.00,WeatherTracker,2013-01-08 12:10:00,
2013-01-08 07:12:00,29.3,27.3,30.45,WSW,253,0.0,0.0,92,0.00,,,0.00,WeatherTracker,2013-01-08 12:12:00,
2013-01-08 07:14:00,29.3,27.3,30.45,WSW,253,0.0,0.0,92,0.00,,,0.00,WeatherTracker,2013-01-08 12:14:00,
2013-01-08 07:15:00,29.3,27.3,30.46,WSW,253,0.0,0.0,92,0.00,,,0.00,WeatherTracker,2013-01-08 12:15:00,
2013-01-08 07:17:00,29.3,27.3,30.46,WSW,253,0.0,0.0,92,0.00,,,0.00,WeatherTracker,2013-01-08 12:17:00,
2013-01-08 07:18:00,29.4,27.4,30.45,WSW,253,0.0,0.0,92,0.00,,,0.00,WeatherTracker,2013-01-08 12:18:00,
2013-01-08 07:20:00,29.5,27.5,30.46,WSW,253,0.0,0.0,92,0.00,,,0.00,WeatherTracker,2013-01-08 12:20:00,
2013-01-08 07:22:00,29.6,27.6,30.46,WSW,253,0.0,0.0,92,0.00,,,0.00,WeatherTracker,2013-01-08 12:22:00,
2013-01-08 07:24:00,29.7,27.7,30.46,WSW,253,0.0,0.0,92,0.00,,,0.00,WeatherTracker,2013-01-08 12:24:00,
2013-01-08 07:26:00,29.9,27.9,30.46,WSW,253,0.0,0.0,92,0.00,,,0.00,WeatherTracker,2013-01-08 12:26:00,
2013-01-08 07:27:00,29.9,27.9,30.46,WSW,253,0.0,0.0,92,0.00,,,0.00,WeatherTracker,2013-01-08 12:27:00,
2013-01-08 07:29:00,30.0,28.0,30.46,WSW,253,0.0,0.0,92,0.00,,,0.00,WeatherTracker,2013-01-08 12:29:00,
2013-01-08 07:31:00,30.1,28.1,30.46,WSW,253,0.0,0.0,92,0.00,,,0.00,WeatherTracker,2013-01-08 12:31:00,
2013-01-08 07:32:00,30.2,28.2,30.46,WSW,253,0.0,0.0,92,0.00,,,0.00,WeatherTracker,2013-01-08 12:32:00,
2013-01-08 07:35:00,30.2,28.2,30.46,WSW,253,0.0,0.0,92,0.00,,,0.00,WeatherTracker,2013-01-08 12:35:00,
2013-01-08 07:36:00,30.3,28.0,30.46,WSW,253,1.0,0.0,91,0.00,,,0.00,WeatherTracker,2013-01-08 12:36:00,
2013-01-08 07:38:00,30.3,28.0,30.46,WSW,253,1.0,0.0,91,0.00,,,0.00,WeatherTracker,2013-01-08 12:38:00,
2013-01-08 07:40:00,30.3,28.0,30.46,WSW,253,2.0,0.0,91,0.00,,,0.00,WeatherTracker,2013-01-08 12:40:00,
2013-01-08 07:42:00,30.4,28.1,30.46,WSW,253,1.0,0.0,91,0.00,,,0.00,WeatherTracker,2013-01-08 12:42:00,
2013-01-08 07:43:00,30.4,28.1,30.47,WSW,253,0.0,0.0,91,0.00,,,0.00,WeatherTracker,2013-01-08 12:43:00,
2013-01-08 07:44:00,30.5,28.5,30.46,WSW,253,0.0,0.0,92,0.00,,,0.00,WeatherTracker,2013-01-08 12:44:00,
2013-01-08 07:45:00,30.5,28.5,30.47,WSW,253,1.0,0.0,92,0.00,,,0.00,WeatherTracker,2013-01-08 12:45:00,
2013-01-08 07:47:00,30.5,28.2,30.47,WSW,253,1.0,0.0,91,0.00,,,0.00,WeatherTracker,2013-01-08 12:47:00,
2013-01-08 07:48:00,30.5,28.2,30.46,WSW,253,0.0,0.0,91,0.00,,,0.00,WeatherTracker,2013-01-08 12:48:00,
2013-01-08 07:49:00,30.5,28.2,30.46,WSW,253,0.0,0.0,91,0.00,,,0.00,WeatherTracker,2013-01-08 12:49:00,
2013-01-08 07:50:00,30.6,28.6,30.47,WSW,253,0.0,0.0,92,0.00,,,0.00,WeatherTracker,2013-01-08 12:50:00,
2013-01-08 07:53:00,30.7,28.7,30.47,WSW,253,2.0,0.0,92,0.00,,,0.00,WeatherTracker,2013-01-08 12:53:00,
2013-01-08 07:55:00,30.8,28.8,30.47,WSW,253,1.0,0.0,92,0.00,,,0.00,WeatherTracker,2013-01-08 12:55:00,
2013-01-08 07:56:00,30.8,28.8,30.47,WSW,253,2.0,0.0,92,0.00,,,0.00,WeatherTracker,2013-01-08 12:56:00,
2013-01-08 07:58:00,30.9,28.9,30.47,WSW,253,1.0,0.0,92,0.00,,,0.00,WeatherTracker,2013-01-08 12:58:00,
2013-01-08 08:00:00,31.0,29.0,30.47,WSW,253,0.0,0.0,92,0.00,,,0.00,WeatherTracker,2013-01-08 13:00:00,
2013-01-08 08:01:00,31.1,29.1,30.47,WSW,253,0.0,0.0,92,0.00,,,0.00,WeatherTracker,2013-01-08 13:01:00,
2013-01-08 08:03:00,31.1,29.1,30.47,WSW,253,0.0,0.0,92,0.00,,,0.00,WeatherTracker,2013-01-08 13:03:00,
2013-01-08 08:05:00,31.2,29.2,30.47,WSW,253,0.0,0.0,92,0.00,,,0.00,WeatherTracker,2013-01-08 13:05:00,
2013-01-08 08:06:00,31.3,29.3,30.47,WSW,253,0.0,0.0,92,0.00,,,0.00,WeatherTracker,2013-01-08 13:06:00,
2013-01-08 08:08:00,31.4,29.3,30.46,WSW,253,1.0,0.0,92,0.00,,,0.00,WeatherTracker,2013-01-08 13:08:00,
2013-01-08 08:09:00,31.5,29.4,30.47,WSW,253,0.0,0.0,92,0.00,,,0.00,WeatherTracker,2013-01-08 13:09:00,
2013-01-08 08:11:00,31.6,29.3,30.47,WSW,253,0.0,0.0,91,0.00,,,0.00,WeatherTracker,2013-01-08 13:11:00,
2013-01-08 08:12:00,31.6,29.3,30.47,WSW,253,2.0,0.0,91,0.00,,,0.00,WeatherTracker,2013-01-08 13:12:00,
2013-01-08 08:13:00,31.7,29.6,30.48,WSW,253,1.0,0.0,92,0.00,,,0.00,WeatherTracker,2013-01-08 13:13:00,
2013-01-08 08:15:00,31.8,29.5,30.48,WSW,253,1.0,0.0,91,0.00,,,0.00,WeatherTracker,2013-01-08 13:15:00,
2013-01-08 08:16:00,31.8,29.5,30.48,WSW,253,2.0,0.0,91,0.00,,,0.00,WeatherTracker,2013-01-08 13:16:00,
2013-01-08 08:18:00,31.9,29.6,30.48,WSW,253,2.0,0.0,91,0.00,,,0.00,WeatherTracker,2013-01-08 13:18:00,
2013-01-08 08:20:00,31.9,29.8,30.48,WSW,253,0.0,0.0,92,0.00,,,0.00,WeatherTracker,2013-01-08 13:20:00,
2013-01-08 08:21:00,31.9,29.8,30.49,WSW,253,0.0,0.0,92,0.00,,,0.00,WeatherTracker,2013-01-08 13:21:00,
2013-01-08 08:23:00,32.0,29.9,30.49,WSW,253,1.0,0.0,92,0.00,,,0.00,WeatherTracker,2013-01-08 13:23:00,
2013-01-08 08:25:00,32.1,29.8,30.49,WSW,253,1.0,0.0,91,0.00,,,0.00,WeatherTracker,2013-01-08 13:25:00,
2013-01-08 08:26:00,32.1,29.8,30.49,WSW,253,0.0,0.0,91,0.00,,,0.00,WeatherTracker,2013-01-08 13:26:00,
2013-01-08 08:28:00,32.3,30.0,30.49,WSW,253,0.0,0.0,91,0.00,,,0.00,WeatherTracker,2013-01-08 13:28:00,
2013-01-08 08:29:00,32.4,30.1,30.49,WSW,253,0.0,0.0,91,0.00,,,0.00,WeatherTracker,2013-01-08 13:29:00,
2013-01-08 08:30:00,32.5,30.4,30.49,WSW,253,0.0,0.0,92,0.00,,,0.00,WeatherTracker,2013-01-08 13:30:00,
2013-01-08 08:31:00,32.6,30.5,30.49,WSW,253,0.0,0.0,92,0.00,,,0.00,WeatherTracker,2013-01-08 13:31:00,
2013-01-08 08:33:00,32.8,30.5,30.49,WSW,253,0.0,0.0,91,0.00,,,0.00,WeatherTracker,2013-01-08 13:33:00,
2013-01-08 08:35:00,32.8,30.5,30.49,WSW,253,0.0,0.0,91,0.00,,,0.00,WeatherTracker,2013-01-08 13:35:00,
2013-01-08 08:37:00,33.0,30.7,30.49,SSW,205,1.0,0.0,91,0.00,,,0.00,WeatherTracker,2013-01-08 13:37:00,
2013-01-08 08:38:00,33.2,30.9,30.49,South,177,1.0,0.0,91,0.00,,,0.00,WeatherTracker,2013-01-08 13:38:00,
2013-01-08 08:40:00,33.4,31.1,30.49,South,177,1.0,0.0,91,0.00,,,0.00,WeatherTracker,2013-01-08 13:40:00,
2013-01-08 08:42:00,33.5,31.2,30.49,South,177,0.0,0.0,91,0.00,,,0.00,WeatherTracker,2013-01-08 13:42:00,
2013-01-08 08:45:00,33.7,31.4,30.50,South,177,0.0,0.0,91,0.00,,,0.00,WeatherTracker,2013-01-08 13:45:00,
2013-01-08 08:46:00,33.8,31.5,30.50,South,177,0.0,0.0,91,0.00,,,0.00,WeatherTracker,2013-01-08 13:46:00,
2013-01-08 08:47:00,33.9,31.6,30.50,South,177,0.0,0.0,91,0.00,,,0.00,WeatherTracker,2013-01-08 13:47:00,
2013-01-08 08:48:00,33.9,31.6,30.50,South,177,0.0,0.0,91,0.00,,,0.00,WeatherTracker,2013-01-08 13:48:00,
2013-01-08 08:50:00,34.1,31.8,30.50,South,177,1.0,0.0,91,0.00,,,0.00,WeatherTracker,2013-01-08 13:50:00,
2013-01-08 08:51:00,34.2,31.9,30.50,South,177,1.0,0.0,91,0.00,,,0.00,WeatherTracker,2013-01-08 13:51:00,
2013-01-08 08:52:00,34.1,31.5,30.50,South,177,0.0,0.0,90,0.00,,,0.00,WeatherTracker,2013-01-08 13:52:00,
2013-01-08 08:53:00,34.1,31.5,30.50,South,177,0.0,0.0,90,0.00,,,0.00,WeatherTracker,2013-01-08 13:53:00,
2013-01-08 08:56:00,34.3,32.0,30.50,South,177,0.0,0.0,91,0.00,,,0.00,WeatherTracker,2013-01-08 13:56:00,
2013-01-08 08:57:00,34.3,32.0,30.50,South,177,0.0,0.0,91,0.00,,,0.00,WeatherTracker,2013-01-08 13:57:00,
2013-01-08 08:58:00,34.4,32.1,30.50,South,177,0.0,0.0,91,0.00,,,0.00,WeatherTracker,2013-01-08 13:58:00,
2013-01-08 09:02:00,34.4,31.8,30.50,South,177,0.0,0.0,90,0.00,,,0.00,WeatherTracker,2013-01-08 14:02:00,
2013-01-08 09:03:00,34.4,31.8,30.50,South,177,0.0,0.0,90,0.00,,,0.00,WeatherTracker,2013-01-08 14:03:00,
2013-01-08 09:04:00,34.5,31.6,30.50,South,177,1.0,0.0,89,0.00,,,0.00,WeatherTracker,2013-01-08 14:04:00,
2013-01-08 09:07:00,34.7,32.1,30.50,South,177,0.0,0.0,90,0.00,,,0.00,WeatherTracker,2013-01-08 14:07:00,
2013-01-08 09:08:00,34.7,32.1,30.50,South,177,0.0,0.0,90,0.00,,,0.00,WeatherTracker,2013-01-08 14:08:00,
2013-01-08 09:09:00,35.0,32.4,30.50,South,177,0.0,0.0,90,0.00,,,0.00,WeatherTracker,2013-01-08 14:09:00,
2013-01-08 09:13:00,35.3,32.7,30.50,South,177,0.0,0.0,90,0.00,,,0.00,WeatherTracker,2013-01-08 14:13:00,
2013-01-08 09:15:00,35.4,32.5,30.50,South,177,1.0,0.0,89,0.00,,,0.00,WeatherTracker,2013-01-08 14:15:00,
2013-01-08 09:18:00,35.4,32.5,30.50,South,177,0.0,0.0,89,0.00,,,0.00,WeatherTracker,2013-01-08 14:18:00,
2013-01-08 09:20:00,35.5,32.6,30.50,South,177,0.0,0.0,89,0.00,,,0.00,WeatherTracker,2013-01-08 14:20:00,
2013-01-08 09:21:00,35.5,32.6,30.49,South,177,0.0,0.0,89,0.00,,,0.00,WeatherTracker,2013-01-08 14:21:00,
2013-01-08 09:24:00,35.5,32.6,30.50,South,177,0.0,0.0,89,0.00,,,0.00,WeatherTracker,2013-01-08 14:24:00,
2013-01-08 09:25:00,35.5,32.6,30.50,South,177,0.0,0.0,89,0.00,,,0.00,WeatherTracker,2013-01-08 14:25:00,
2013-01-08 09:26:00,35.6,32.7,30.50,South,177,0.0,0.0,89,0.00,,,0.00,WeatherTracker,2013-01-08 14:26:00,
2013-01-08 09:29:00,35.6,33.0,30.50,South,177,0.0,0.0,90,0.00,,,0.00,WeatherTracker,2013-01-08 14:29:00,
2013-01-08 09:30:00,35.6,33.0,30.50,South,177,0.0,0.0,90,0.00,,,0.00,WeatherTracker,2013-01-08 14:30:00,
2013-01-08 09:31:00,35.7,33.1,30.50,South,177,0.0,0.0,90,0.00,,,0.00,WeatherTracker,2013-01-08 14:31:00,
2013-01-08 09:35:00,36.0,33.4,30.50,South,177,0.0,0.0,90,0.00,,,0.00,WeatherTracker,2013-01-08 14:35:00,
2013-01-08 09:36:00,36.1,33.5,30.50,South,177,1.0,0.0,90,0.00,,,0.00,WeatherTracker,2013-01-08 14:36:00,
2013-01-08 09:37:00,36.1,33.5,30.50,South,177,0.0,0.0,90,0.00,,,0.00,WeatherTracker,2013-01-08 14:37:00,
2013-01-08 09:40:00,36.2,33.3,30.50,South,173,1.0,0.0,89,0.00,,,0.00,WeatherTracker,2013-01-08 14:40:00,
2013-01-08 09:41:00,36.2,33.0,30.50,SSE,167,1.0,0.0,88,0.00,,,0.00,WeatherTracker,2013-01-08 14:41:00,
2013-01-08 09:42:00,36.2,33.3,30.50,SSE,167,0.0,0.0,89,0.00,,,0.00,WeatherTracker,2013-01-08 14:42:00,
2013-01-08 09:45:00,36.1,33.2,30.51,SSE,167,0.0,0.0,89,0.00,,,0.00,WeatherTracker,2013-01-08 14:45:00,
2013-01-08 09:46:00,36.2,33.3,30.51,SSE,167,1.0,0.0,89,0.00,,,0.00,WeatherTracker,2013-01-08 14:46:00,
2013-01-08 09:47:00,36.2,33.3,30.51,SSE,167,0.0,0.0,89,0.00,,,0.00,WeatherTracker,2013-01-08 14:47:00,
2013-01-08 09:50:00,36.2,33.0,30.51,SSE,167,0.0,0.0,88,0.00,,,0.00,WeatherTracker,2013-01-08 14:50:00,
2013-01-08 09:52:00,36.3,33.1,30.51,SSE,167,0.0,0.0,88,0.00,,,0.00,WeatherTracker,2013-01-08 14:52:00,
2013-01-08 09:53:00,36.3,33.1,30.52,SSE,167,0.0,0.0,88,0.00,,,0.00,WeatherTracker,2013-01-08 14:53:00,
2013-01-08 09:56:00,36.2,33.0,30.52,SSE,167,0.0,0.0,88,0.00,,,0.00,WeatherTracker,2013-01-08 14:56:00,
2013-01-08 09:57:00,36.2,33.0,30.52,SSE,167,1.0,0.0,88,0.00,,,0.00,WeatherTracker,2013-01-08 14:57:00,
2013-01-08 09:58:00,36.2,33.0,30.52,SSE,167,0.0,0.0,88,0.00,,,0.00,WeatherTracker,2013-01-08 14:58:00,
2013-01-08 10:01:00,36.4,33.5,30.52,SSE,167,0.0,0.0,89,0.00,,,0.00,WeatherTracker,2013-01-08 15:01:00,
2013-01-08 10:02:00,36.5,33.9,30.52,SSE,167,0.0,0.0,90,0.00,,,0.00,WeatherTracker,2013-01-08 15:02:00,
2013-01-08 10:04:00,36.6,33.7,30.52,SSE,167,1.0,0.0,89,0.00,,,0.00,WeatherTracker,2013-01-08 15:04:00,
2013-01-08 10:07:00,36.6,33.7,30.52,SSE,167,1.0,0.0,89,0.00,,,0.00,WeatherTracker,2013-01-08 15:07:00,
2013-01-08 10:08:00,36.7,33.8,30.52,SSE,167,0.0,0.0,89,0.00,,,0.00,WeatherTracker,2013-01-08 15:08:00,
2013-01-08 10:09:00,36.8,33.9,30.52,SSE,167,0.0,0.0,89,0.00,,,0.00,WeatherTracker,2013-01-08 15:09:00,
2013-01-08 10:12:00,36.9,34.0,30.52,SSE,167,0.0,0.0,89,0.00,,,0.00,WeatherTracker,2013-01-08 15:12:00,
2013-01-08 10:13:00,36.9,34.0,30.52,SSE,167,0.0,0.0,89,0.00,,,0.00,WeatherTracker,2013-01-08 15:13:00,
2013-01-08 10:14:00,37.0,33.8,30.51,SSE,167,0.0,0.0,88,0.00,,,0.00,WeatherTracker,2013-01-08 15:14:00,
2013-01-08 10:17:00,37.6,34.7,30.51,SSE,167,0.0,0.0,89,0.00,,,0.00,WeatherTracker,2013-01-08 15:17:00,
2013-01-08 10:18:00,37.7,34.8,30.51,SSE,167,0.0,0.0,89,0.00,,,0.00,WeatherTracker,2013-01-08 15:18:00,
2013-01-08 10:19:00,37.7,34.8,30.51,SSE,167,0.0,0.0,89,0.00,,,0.00,WeatherTracker,2013-01-08 15:19:00,
2013-01-08 10:23:00,38.1,34.9,30.51,SSE,167,0.0,0.0,88,0.00,,,0.00,WeatherTracker,2013-01-08 15:23:00,
2013-01-08 10:24:00,38.2,35.0,30.52,SSE,167,0.0,0.0,88,0.00,,,0.00,WeatherTracker,2013-01-08 15:24:00,
2013-01-08 10:25:00,38.2,34.7,30.52,SSE,167,1.0,0.0,87,0.00,,,0.00,WeatherTracker,2013-01-08 15:25:00,
2013-01-08 10:28:00,38.3,34.5,30.51,SSE,167,0.0,0.0,86,0.00,,,0.00,WeatherTracker,2013-01-08 15:28:00,
2013-01-08 10:29:00,38.3,34.8,30.51,SSE,167,0.0,0.0,87,0.00,,,0.00,WeatherTracker,2013-01-08 15:29:00,
2013-01-08 10:30:00,38.4,34.9,30.51,SSE,167,0.0,0.0,87,0.00,,,0.00,WeatherTracker,2013-01-08 15:30:00,
2013-01-08 10:33:00,38.7,35.2,30.51,SSE,167,0.0,0.0,87,0.00,,,0.00,WeatherTracker,2013-01-08 15:33:00,
2013-01-08 10:35:00,38.9,35.4,30.51,SSE,167,1.0,0.0,87,0.00,,,0.00,WeatherTracker,2013-01-08 15:35:00,
2013-01-08 10:36:00,39.0,35.5,30.51,SSE,167,1.0,0.0,87,0.00,,,0.00,WeatherTracker,2013-01-08 15:36:00,
2013-01-08 10:38:00,39.1,35.3,30.51,SSE,167,1.0,0.0,86,0.00,,,0.00,WeatherTracker,2013-01-08 15:38:00,
2013-01-08 10:40:00,39.1,35.3,30.51,SSE,168,0.0,0.0,86,0.00,,,0.00,WeatherTracker,2013-01-08 15:40:00,
2013-01-08 10:41:00,39.1,35.3,30.51,SSE,168,0.0,0.0,86,0.00,,,0.00,WeatherTracker,2013-01-08 15:41:00,
2013-01-08 10:42:00,39.2,35.4,30.51,SSE,168,0.0,0.0,86,0.00,,,0.00,WeatherTracker,2013-01-08 15:42:00,
2013-01-08 10:43:00,39.3,35.5,30.51,SSW,204,1.0,0.0,86,0.00,,,0.00,WeatherTracker,2013-01-08 15:43:00,
2013-01-08 10:46:00,39.4,35.3,30.51,SW,218,0.0,0.0,85,0.00,,,0.00,WeatherTracker,2013-01-08 15:46:00,
2013-01-08 10:47:00,39.7,35.6,30.51,SW,218,0.0,0.0,85,0.00,,,0.00,WeatherTracker,2013-01-08 15:47:00,
2013-01-08 10:49:00,39.9,35.5,30.50,SW,218,1.0,0.0,84,0.00,,,0.00,WeatherTracker,2013-01-08 15:49:00,
2013-01-08 10:51:00,40.0,35.6,30.50,SW,218,0.0,0.0,84,0.00,,,0.00,WeatherTracker,2013-01-08 15:51:00,
2013-01-08 10:53:00,40.1,35.4,30.50,SW,217,0.0,0.0,83,0.00,,,0.00,WeatherTracker,2013-01-08 15:53:00,
2013-01-08 10:54:00,40.2,35.5,30.50,SW,218,0.0,0.0,83,0.00,,,0.00,WeatherTracker,2013-01-08 15:54:00,
2013-01-08 10:56:00,40.3,35.2,30.50,SW,218,1.0,0.0,82,0.00,,,0.00,WeatherTracker,2013-01-08 15:56:00,
2013-01-08 10:58:00,40.4,35.3,30.50,SW,218,0.0,0.0,82,0.00,,,0.00,WeatherTracker,2013-01-08 15:58:00,
2013-01-08 10:59:00,40.4,35.3,30.50,SW,218,0.0,0.0,82,0.00,,,0.00,WeatherTracker,2013-01-08 15:59:00,
2013-01-08 11:00:00,40.5,35.4,30.50,SW,218,0.0,0.0,82,0.00,,,0.00,WeatherTracker,2013-01-08 16:00:00,
2013-01-08 11:02:00,41.1,35.7,30.50,SW,218,1.0,0.0,81,0.00,,,0.00,WeatherTracker,2013-01-08 16:02:00,
2013-01-08 11:04:00,41.2,35.5,30.50,SW,218,1.0,0.0,80,0.00,,,0.00,WeatherTracker,2013-01-08 16:04:00,
2013-01-08 11:05:00,41.2,35.5,30.50,SW,218,0.0,0.0,80,0.00,,,0.00,WeatherTracker,2013-01-08 16:05:00,
2013-01-08 11:07:00,41.3,35.3,30.50,SW,218,0.0,0.0,79,0.00,,,0.00,WeatherTracker,2013-01-08 16:07:00,
2013-01-08 11:09:00,41.4,35.4,30.50,SW,218,0.0,0.0,79,0.00,,,0.00,WeatherTracker,2013-01-08 16:09:00,
2013-01-08 11:10:00,41.5,35.8,30.50,SW,218,0.0,0.0,80,0.00,,,0.00,WeatherTracker,2013-01-08 16:10:00,
2013-01-08 11:11:00,41.6,35.6,30.50,SW,218,0.0,0.0,79,0.00,,,0.00,WeatherTracker,2013-01-08 16:11:00,
2013-01-08 11:12:00,41.6,35.3,30.49,SW,218,0.0,0.0,78,0.00,,,0.00,WeatherTracker,2013-01-08 16:12:00,
2013-01-08 11:15:00,41.8,35.5,30.49,SW,218,0.0,0.0,78,0.00,,,0.00,WeatherTracker,2013-01-08 16:15:00,
2013-01-08 11:16:00,41.8,35.1,30.49,SW,218,0.0,0.0,77,0.00,,,0.00,WeatherTracker,2013-01-08 16:16:00,
2013-01-08 11:17:00,41.9,35.2,30.49,SW,218,0.0,0.0,77,0.00,,,0.00,WeatherTracker,2013-01-08 16:17:00,
2013-01-08 11:18:00,41.8,35.1,30.49,SW,218,0.0,0.0,77,0.00,,,0.00,WeatherTracker,2013-01-08 16:18:00,
2013-01-08 11:20:00,41.8,35.5,30.49,SW,218,1.0,0.0,78,0.00,,,0.00,WeatherTracker,2013-01-08 16:20:00,
2013-01-08 11:21:00,41.8,35.5,30.49,South,186,2.0,0.0,78,0.00,,,0.00,WeatherTracker,2013-01-08 16:21:00,
2013-01-08 11:22:00,41.8,35.5,30.49,South,186,0.0,0.0,78,0.00,,,0.00,WeatherTracker,2013-01-08 16:22:00,
2013-01-08 11:23:00,41.7,35.4,30.49,South,186,0.0,0.0,78,0.00,,,0.00,WeatherTracker,2013-01-08 16:23:00,
2013-01-08 11:26:00,41.9,35.9,30.49,South,186,1.0,0.0,79,0.00,,,0.00,WeatherTracker,2013-01-08 16:26:00,
2013-01-08 11:27:00,42.0,36.0,30.49,South,186,0.0,0.0,79,0.00,,,0.00,WeatherTracker,2013-01-08 16:27:00,
2013-01-08 11:28:00,42.1,36.1,30.49,South,186,2.0,0.0,79,0.00,,,0.00,WeatherTracker,2013-01-08 16:28:00,
2013-01-08 11:31:00,42.2,35.8,30.49,South,186,0.0,0.0,78,0.00,,,0.00,WeatherTracker,2013-01-08 16:31:00,
2013-01-08 11:32:00,42.2,35.8,30.49,South,186,0.0,0.0,78,0.00,,,0.00,WeatherTracker,2013-01-08 16:32:00,
2013-01-08 11:33:00,42.3,35.9,30.49,South,186,0.0,0.0,78,0.00,,,0.00,WeatherTracker,2013-01-08 16:33:00,
2013-01-08 11:34:00,42.3,35.9,30.49,South,186,0.0,0.0,78,0.00,,,0.00,WeatherTracker,2013-01-08 16:34:00,
2013-01-08 11:36:00,42.4,36.0,30.49,South,188,2.0,0.0,78,0.00,,,0.00,WeatherTracker,2013-01-08 16:36:00,
2013-01-08 11:37:00,42.4,36.0,30.49,South,188,1.0,0.0,78,0.00,,,0.00,WeatherTracker,2013-01-08 16:37:00,
2013-01-08 11:38:00,42.4,36.0,30.49,South,188,0.0,0.0,78,0.00,,,0.00,WeatherTracker,2013-01-08 16:38:00,
2013-01-08 11:40:00,42.3,35.9,30.49,South,188,1.0,0.0,78,0.00,,,0.00,WeatherTracker,2013-01-08 16:40:00,
2013-01-08 11:41:00,42.3,35.9,30.49,South,188,0.0,0.0,78,0.00,,,0.00,WeatherTracker,2013-01-08 16:41:00,
2013-01-08 11:43:00,42.7,36.3,30.48,South,188,1.0,0.0,78,0.00,,,0.00,WeatherTracker,2013-01-08 16:43:00,
2013-01-08 11:45:00,42.7,35.7,30.48,South,188,0.0,0.0,76,0.00,,,0.00,WeatherTracker,2013-01-08 16:45:00,
2013-01-08 11:48:00,42.9,35.9,30.48,SSW,195,1.0,0.0,76,0.00,,,0.00,WeatherTracker,2013-01-08 16:48:00,
2013-01-08 11:49:00,42.9,35.9,30.48,SW,224,2.0,0.0,76,0.00,,,0.00,WeatherTracker,2013-01-08 16:49:00,
2013-01-08 11:50:00,42.9,35.9,30.49,WNW,284,1.0,0.0,76,0.00,,,0.00,WeatherTracker,2013-01-08 16:50:00,
2013-01-08 11:54:00,42.6,35.2,30.48,WNW,284,1.0,0.0,75,0.00,,,0.00,WeatherTracker,2013-01-08 16:54:00,
2013-01-08 11:56:00,42.7,35.0,30.48,WNW,284,1.0,0.0,74,0.00,,,0.00,WeatherTracker,2013-01-08 16:56:00,
2013-01-08 11:59:00,42.9,35.2,30.48,WNW,284,0.0,0.0,74,0.00,,,0.00,WeatherTracker,2013-01-08 16:59:00,
2013-01-08 12:00:00,42.9,35.2,30.48,WNW,284,0.0,0.0,74,0.00,,,0.00,WeatherTracker,2013-01-08 17:00:00,
2013-01-08 12:01:00,43.1,35.0,30.48,WNW,284,0.0,0.0,73,0.00,,,0.00,WeatherTracker,2013-01-08 17:01:00,
2013-01-08 12:05:00,43.6,35.5,30.48,WNW,284,0.0,0.0,73,0.00,,,0.00,WeatherTracker,2013-01-08 17:05:00,
2013-01-08 12:06:00,43.9,35.8,30.48,WNW,284,0.0,0.0,73,0.00,,,0.00,WeatherTracker,2013-01-08 17:06:00,
2013-01-08 12:07:00,44.1,35.7,30.48,WNW,284,0.0,0.0,72,0.00,,,0.00,WeatherTracker,2013-01-08 17:07:00,
2013-01-08 12:10:00,44.7,36.2,30.47,WNW,284,0.0,0.0,72,0.00,,,0.00,WeatherTracker,2013-01-08 17:10:00,
2013-01-08 12:11:00,44.7,36.2,30.47,WNW,284,0.0,0.0,72,0.00,,,0.00,WeatherTracker,2013-01-08 17:11:00,
2013-01-08 12:13:00,44.5,35.7,30.47,WNW,284,1.0,0.0,71,0.00,,,0.00,WeatherTracker,2013-01-08 17:13:00,
2013-01-08 12:15:00,44.5,35.7,30.47,WNW,284,0.0,0.0,71,0.00,,,0.00,WeatherTracker,2013-01-08 17:15:00,
2013-01-08 12:16:00,44.5,35.7,30.47,WNW,284,0.0,0.0,71,0.00,,,0.00,WeatherTracker,2013-01-08 17:16:00,
2013-01-08 12:19:00,45.1,36.3,30.47,WSW,247,0.0,0.0,71,0.00,,,0.00,WeatherTracker,2013-01-08 17:19:00,
2013-01-08 12:21:00,45.7,36.5,30.47,WSW,247,0.0,0.0,70,0.00,,,0.00,WeatherTracker,2013-01-08 17:21:00,
2013-01-08 12:24:00,46.6,37.3,30.46,SSW,195,1.0,0.0,70,0.00,,,0.00,WeatherTracker,2013-01-08 17:24:00,
2013-01-08 12:26:00,46.7,36.7,30.46,South,175,0.0,0.0,68,0.00,,,0.00,WeatherTracker,2013-01-08 17:26:00,
2013-01-08 12:27:00,46.4,36.4,30.46,South,175,0.0,0.0,68,0.00,,,0.00,WeatherTracker,2013-01-08 17:27:00,
2013-01-08 12:29:00,46.3,37.4,30.46,South,175,0.0,0.0,71,0.00,,,0.00,WeatherTracker,2013-01-08 17:29:00,
2013-01-08 12:31:00,46.3,36.7,30.46,SE,138,1.0,0.0,69,0.00,,,0.00,WeatherTracker,2013-01-08 17:31:00,
2013-01-08 12:32:00,46.6,37.0,30.46,SE,138,0.0,0.0,69,0.00,,,0.00,WeatherTracker,2013-01-08 17:32:00,
2013-01-08 12:34:00,47.0,37.0,30.46,SE,138,1.0,0.0,68,0.00,,,0.00,WeatherTracker,2013-01-08 17:34:00,
2013-01-08 12:36:00,47.1,36.7,30.45,SE,132,4.0,0.0,67,0.00,,,0.00,WeatherTracker,2013-01-08 17:36:00,
2013-01-08 12:37:00,47.1,36.3,30.45,ESE,120,2.0,0.0,66,0.00,,,0.00,WeatherTracker,2013-01-08 17:37:00,
2013-01-08 12:38:00,46.9,36.1,30.45,ESE,117,0.0,0.0,66,0.00,,,0.00,WeatherTracker,2013-01-08 17:38:00,
2013-01-08 12:40:00,46.9,36.5,30.45,ESE,118,2.0,0.0,67,0.00,,,0.00,WeatherTracker,2013-01-08 17:40:00,
2013-01-08 12:41:00,46.9,36.5,30.45,ESE,122,2.0,0.0,67,0.00,,,0.00,WeatherTracker,2013-01-08 17:41:00,
2013-01-08 12:42:00,46.7,36.3,30.45,ESE,123,3.0,0.0,67,0.00,,,0.00,WeatherTracker,2013-01-08 17:42:00,
2013-01-08 12:44:00,46.6,36.6,30.45,SE,126,1.0,0.0,68,0.00,,,0.00,WeatherTracker,2013-01-08 17:44:00,
2013-01-08 12:45:00,47.0,37.0,30.45,SE,124,0.0,0.0,68,0.00,,,0.00,WeatherTracker,2013-01-08 17:45:00,
2013-01-08 12:46:00,47.2,36.8,30.45,SE,124,0.0,0.0,67,0.00,,,0.00,WeatherTracker,2013-01-08 17:46:00,
2013-01-08 12:47:00,47.3,36.9,30.45,South,173,1.0,0.0,67,0.00,,,0.00,WeatherTracker,2013-01-08 17:47:00,
2013-01-08 12:49:00,47.8,37.8,30.45,South,173,0.0,0.0,68,0.00,,,0.00,WeatherTracker,2013-01-08 17:49:00,
2013-01-08 12:50:00,48.0,37.2,30.45,ENE,57,2.0,0.0,66,0.00,,,0.00,WeatherTracker,2013-01-08 17:50:00,
2013-01-08 12:51:00,48.1,37.3,30.44,SE,128,2.0,0.0,66,0.00,,,0.00,WeatherTracker,2013-01-08 17:51:00,
2013-01-08 12:53:00,47.9,36.7,30.44,ESE,113,1.0,0.0,65,0.00,,,0.00,WeatherTracker,2013-01-08 17:53:00,
2013-01-08 12:55:00,47.8,36.6,30.44,East,101,2.0,0.0,65,0.00,,,0.00,WeatherTracker,2013-01-08 17:55:00,
2013-01-08 12:57:00,48.1,37.3,30.44,ESE,119,2.0,0.0,66,0.00,,,0.00,WeatherTracker,2013-01-08 17:57:00,
2013-01-08 12:58:00,48.2,36.6,30.44,ESE,119,1.0,0.0,64,0.00,,,0.00,WeatherTracker,2013-01-08 17:58:00,
2013-01-08 13:00:00,48.5,37.3,30.44,ENE,65,2.0,0.0,65,0.00,,,0.00,WeatherTracker,2013-01-08 18:00:00,
2013-01-08 13:02:00,48.7,36.7,30.44,ENE,76,1.0,0.0,63,0.00,,,0.00,WeatherTracker,2013-01-08 18:02:00,
2013-01-08 13:03:00,48.6,36.2,30.43,NE,51,2.0,0.0,62,0.00,,,0.00,WeatherTracker,2013-01-08 18:03:00,
2013-01-08 13:05:00,48.6,36.2,30.43,East,83,1.0,0.0,62,0.00,,,0.00,WeatherTracker,2013-01-08 18:05:00,
2013-01-08 13:06:00,48.6,36.2,30.43,East,83,0.0,0.0,62,0.00,,,0.00,WeatherTracker,2013-01-08 18:06:00,
2013-01-08 13:08:00,48.7,35.9,30.43,ENE,61,2.0,0.0,61,0.00,,,0.00,WeatherTracker,2013-01-08 18:08:00,
2013-01-08 13:09:00,48.9,36.5,30.43,ENE,71,1.0,0.0,62,0.00,,,0.00,WeatherTracker,2013-01-08 18:09:00,
2013-01-08 13:10:00,49.3,36.0,30.43,East,93,5.0,0.0,60,0.00,,,0.00,WeatherTracker,2013-01-08 18:10:00,
2013-01-08 13:11:00,49.4,36.1,30.43,ESE,106,3.0,0.0,60,0.00,,,0.00,WeatherTracker,2013-01-08 18:11:00,
2013-01-08 13:13:00,49.7,36.8,30.43,ESE,121,2.0,0.0,61,0.00,,,0.00,WeatherTracker,2013-01-08 18:13:00,
2013-01-08 13:14:00,49.8,36.5,30.43,ESE,121,0.0,0.0,60,0.00,,,0.00,WeatherTracker,2013-01-08 18:14:00,
2013-01-08 13:16:00,50.0,35.8,30.43,East,85,0.0,0.0,58,0.00,,,0.00,WeatherTracker,2013-01-08 18:16:00,
2013-01-08 13:17:00,49.9,35.7,30.43,NE,47,2.0,0.0,58,0.00,,,0.00,WeatherTracker,2013-01-08 18:17:00,
2013-01-08 13:18:00,49.7,35.5,30.43,East,92,3.0,0.0,58,0.00,,,0.00,WeatherTracker,2013-01-08 18:18:00,
2013-01-08 13:20:00,49.5,35.3,30.43,ESE,107,0.0,0.0,58,0.00,,,0.00,WeatherTracker,2013-01-08 18:20:00,
2013-01-08 13:21:00,49.7,36.0,30.43,ESE,107,1.0,0.0,59,0.00,,,0.00,WeatherTracker,2013-01-08 18:21:00,
2013-01-08 13:22:00,50.1,36.3,30.43,SE,132,2.0,0.0,59,0.00,,,0.00,WeatherTracker,2013-01-08 18:22:00,
2013-01-08 13:24:00,50.1,35.5,30.43,ESE,122,4.0,0.0,57,0.00,,,0.00,WeatherTracker,2013-01-08 18:24:00,
2013-01-08 13:25:00,49.9,35.3,30.43,ESE,113,1.0,0.0,57,0.00,,,0.00,WeatherTracker,2013-01-08 18:25:00,
2013-01-08 13:27:00,49.9,35.3,30.43,ESE,123,0.0,0.0,57,0.00,,,0.00,WeatherTracker,2013-01-08 18:27:00,
2013-01-08 13:28:00,50.0,35.4,30.43,ESE,123,0.0,0.0,57,0.00,,,0.00,WeatherTracker,2013-01-08 18:28:00,
2013-01-08 13:29:00,50.4,36.2,30.43,ESE,122,2.0,0.0,58,0.00,,,0.00,WeatherTracker,2013-01-08 18:29:00,
2013-01-08 13:30:00,50.6,35.9,30.43,ENE,70,3.0,0.0,57,0.00,,,0.00,WeatherTracker,2013-01-08 18:30:00,
2013-01-08 13:32:00,50.6,35.0,30.43,ENE,69,0.0,0.0,55,0.00,,,0.00,WeatherTracker,2013-01-08 18:32:00,
2013-01-08 13:33:00,50.7,35.1,30.43,ENE,69,1.0,0.0,55,0.00,,,0.00,WeatherTracker,2013-01-08 18:33:00,
2013-01-08 13:35:00,50.8,35.2,30.43,ESE,107,2.0,0.0,55,0.00,,,0.00,WeatherTracker,2013-01-08 18:35:00,
2013-01-08 13:37:00,50.7,34.7,30.43,East,91,1.0,0.0,54,0.00,,,0.00,WeatherTracker,2013-01-08 18:37:00,
2013-01-08 13:38:00,50.7,35.1,30.43,SE,127,3.0,0.0,55,0.00,,,0.00,WeatherTracker,2013-01-08 18:38:00,
2013-01-08 13:40:00,50.8,35.2,30.43,SE,140,2.0,0.0,55,0.00,,,0.00,WeatherTracker,2013-01-08 18:40:00,
2013-01-08 13:42:00,51.0,35.4,30.43,ENE,70,0.0,0.0,55,0.00,,,0.00,WeatherTracker,2013-01-08 18:42:00,
2013-01-08 13:44:00,51.4,35.8,30.42,SE,130,2.0,0.0,55,0.00,,,0.00,WeatherTracker,2013-01-08 18:44:00,
2013-01-08 13:45:00,51.5,35.4,30.42,SE,132,1.0,0.0,54,0.00,,,0.00,WeatherTracker,2013-01-08 18:45:00,
2013-01-08 13:48:00,51.8,35.2,30.43,SE,124,0.0,0.0,53,0.00,,,0.00,WeatherTracker,2013-01-08 18:48:00,
2013-01-08 13:50:00,52.3,36.2,30.43,SE,124,1.0,0.0,54,0.00,,,0.00,WeatherTracker,2013-01-08 18:50:00,
2013-01-08 13:54:00,52.4,35.8,30.43,ENE,67,2.0,0.0,53,0.00,,,0.00,WeatherTracker,2013-01-08 18:54:00,
2013-01-08 13:55:00,52.2,35.6,30.43,ENE,67,1.0,0.0,53,0.00,,,0.00,WeatherTracker,2013-01-08 18:55:00,
2013-01-08 13:56:00,52.1,35.5,30.43,ENE,67,0.0,0.0,53,0.00,,,0.00,WeatherTracker,2013-01-08 18:56:00,
2013-01-08 13:57:00,52.1,35.5,30.42,ENE,78,0.0,0.0,53,0.00,,,0.00,WeatherTracker,2013-01-08 18:57:00,
2013-01-08 14:00:00,52.2,35.6,30.42,ENE,78,1.0,0.0,53,0.00,,,0.00,WeatherTracker,2013-01-08 19:00:00,
2013-01-08 14:01:00,52.1,35.5,30.42,ENE,67,0.0,0.0,53,0.00,,,0.00,WeatherTracker,2013-01-08 19:01:00,
2013-01-08 14:03:00,51.9,35.3,30.42,NE,51,0.0,0.0,53,0.00,,,0.00,WeatherTracker,2013-01-08 19:03:00,
2013-01-08 14:05:00,52.3,36.2,30.42,NNW,342,1.0,0.0,54,0.00,,,0.00,WeatherTracker,2013-01-08 19:05:00,
2013-01-08 14:06:00,52.3,35.7,30.42,NW,315,3.0,0.0,53,0.00,,,0.00,WeatherTracker,2013-01-08 19:06:00,
2013-01-08 14:08:00,52.1,35.5,30.42,NW,309,3.0,0.0,53,0.00,,,0.00,WeatherTracker,2013-01-08 19:08:00,
2013-01-08 14:10:00,52.0,35.9,30.42,NW,311,2.0,0.0,54,0.00,,,0.00,WeatherTracker,2013-01-08 19:10:00,
2013-01-08 14:11:00,52.1,36.0,30.42,NW,311,0.0,0.0,54,0.00,,,0.00,WeatherTracker,2013-01-08 19:11:00,
2013-01-08 14:12:00,52.3,36.2,30.42,NW,313,0.0,0.0,54,0.00,,,0.00,WeatherTracker,2013-01-08 19:12:00,
2013-01-08 14:15:00,52.4,35.8,30.42,NW,311,3.0,0.0,53,0.00,,,0.00,WeatherTracker,2013-01-08 19:15:00,
2013-01-08 14:16:00,52.3,36.2,30.42,WNW,302,2.0,0.0,54,0.00,,,0.00,WeatherTracker,2013-01-08 19:16:00,
2013-01-08 14:18:00,52.3,36.6,30.41,NW,316,1.0,0.0,55,0.00,,,0.00,WeatherTracker,2013-01-08 19:18:00,
2013-01-08 14:20:00,52.4,36.2,30.41,NNE,13,2.0,0.0,54,0.00,,,0.00,WeatherTracker,2013-01-08 19:20:00,
2013-01-08 14:21:00,52.4,36.2,30.41,NNE,13,1.0,0.0,54,0.00,,,0.00,WeatherTracker,2013-01-08 19:21:00,
2013-01-08 14:22:00,52.6,36.4,30.41,NNE,13,1.0,0.0,54,0.00,,,0.00,WeatherTracker,2013-01-08 19:22:00,
2013-01-08 14:23:00,52.8,36.6,30.41,NNE,13,0.0,0.0,54,0.00,,,0.00,WeatherTracker,2013-01-08 19:23:00,
2013-01-08 14:25:00,53.2,36.5,30.41,WNW,292,2.0,0.0,53,0.00,,,0.00,WeatherTracker,2013-01-08 19:25:00,
2013-01-08 14:26:00,53.3,36.6,30.41,WNW,286,3.0,0.0,53,0.00,,,0.00,WeatherTracker,2013-01-08 19:26:00,
2013-01-08 14:27:00,53.3,36.6,30.41,WNW,286,1.0,0.0,53,0.00,,,0.00,WeatherTracker,2013-01-08 19:27:00,
2013-01-08 14:30:00,53.4,36.7,30.41,NW,324,2.0,0.0,53,0.00,,,0.00,WeatherTracker,2013-01-08 19:30:00,
2013-01-08 14:31:00,53.5,36.8,30.41,NW,325,0.0,0.0,53,0.00,,,0.00,WeatherTracker,2013-01-08 19:31:00,
2013-01-08 14:33:00,53.5,36.3,30.41,East,94,2.0,0.0,52,0.00,,,0.00,WeatherTracker,2013-01-08 19:33:00,
2013-01-08 14:36:00,53.7,37.0,30.41,East,95,1.0,0.0,53,0.00,,,0.00,WeatherTracker,2013-01-08 19:36:00,
2013-01-08 14:39:00,53.9,37.2,30.41,East,94,0.0,0.0,53,0.00,,,0.00,WeatherTracker,2013-01-08 19:39:00,
2013-01-08 14:41:00,54.5,37.7,30.41,East,94,1.0,0.0,53,0.00,,,0.00,WeatherTracker,2013-01-08 19:41:00,
2013-01-08 14:42:00,54.5,37.7,30.41,East,93,1.0,0.0,53,0.00,,,0.00,WeatherTracker,2013-01-08 19:42:00,
2013-01-08 14:44:00,54.3,37.1,30.41,ENE,78,0.0,0.0,52,0.00,,,0.00,WeatherTracker,2013-01-08 19:44:00,
2013-01-08 14:47:00,54.2,37.4,30.41,East,99,2.0,0.0,53,0.00,,,0.00,WeatherTracker,2013-01-08 19:47:00,
2013-01-08 14:48:00,54.1,37.4,30.41,ESE,111,1.0,0.0,53,0.00,,,0.00,WeatherTracker,2013-01-08 19:48:00,
2013-01-08 14:50:00,53.9,37.2,30.41,SE,146,1.0,0.0,53,0.00,,,0.00,WeatherTracker,2013-01-08 19:50:00,
2013-01-08 14:52:00,53.8,37.5,30.41,East,100,5.0,0.0,54,0.00,,,0.00,WeatherTracker,2013-01-08 19:52:00,
2013-01-08 14:53:00,53.8,37.5,30.41,ESE,104,3.0,0.0,54,0.00,,,0.00,WeatherTracker,2013-01-08 19:53:00,
2013-01-08 14:56:00,53.8,37.5,30.41,East,98,1.0,0.0,54,0.00,,,0.00,WeatherTracker,2013-01-08 19:56:00,
2013-01-08 14:58:00,54.0,37.7,30.41,East,100,1.0,0.0,54,0.00,,,0.00,WeatherTracker,2013-01-08 19:58:00,
2013-01-08 14:59:00,54.1,37.8,30.41,East,100,1.0,0.0,54,0.00,,,0.00,WeatherTracker,2013-01-08 19:59:00,
2013-01-08 15:01:00,54.3,38.0,30.41,WSW,251,3.0,0.0,54,0.00,,,0.00,WeatherTracker,2013-01-08 20:01:00,
2013-01-08 15:03:00,54.1,37.4,30.41,West,279,2.0,0.0,53,0.00,,,0.00,WeatherTracker,2013-01-08 20:03:00,
2013-01-08 15:04:00,54.1,37.8,30.41,West,264,3.0,0.0,54,0.00,,,0.00,WeatherTracker,2013-01-08 20:04:00,
2013-01-08 15:07:00,54.0,37.7,30.41,WNW,290,2.0,0.0,54,0.00,,,0.00,WeatherTracker,2013-01-08 20:07:00,
2013-01-08 15:08:00,53.9,38.1,30.41,WNW,290,0.0,0.0,55,0.00,,,0.00,WeatherTracker,2013-01-08 20:08:00,
2013-01-08 15:09:00,53.9,38.1,30.41,WNW,290,0.0,0.0,55,0.00,,,0.00,WeatherTracker,2013-01-08 20:09:00,
2013-01-08 15:10:00,53.9,38.1,30.41,WNW,290,0.0,0.0,55,0.00,,,0.00,WeatherTracker,2013-01-08 20:10:00,
2013-01-08 15:12:00,54.1,38.3,30.41,WNW,290,0.0,0.0,55,0.00,,,0.00,WeatherTracker,2013-01-08 20:12:00,
2013-01-08 15:14:00,54.2,38.4,30.41,SSE,148,2.0,0.0,55,0.00,,,0.00,WeatherTracker,2013-01-08 20:14:00,
2013-01-08 15:15:00,54.2,38.4,30.41,SSE,148,2.0,0.0,55,0.00,,,0.00,WeatherTracker,2013-01-08 20:15:00,
2013-01-08 15:17:00,54.2,38.4,30.41,ESE,107,0.0,0.0,55,0.00,,,0.00,WeatherTracker,2013-01-08 20:17:00,
2013-01-08 15:20:00,54.5,38.7,30.41,ESE,107,0.0,0.0,55,0.00,,,0.00,WeatherTracker,2013-01-08 20:20:00,
2013-01-08 15:22:00,54.6,38.8,30.41,ESE,121,1.0,0.0,55,0.00,,,0.00,WeatherTracker,2013-01-08 20:22:00,
2013-01-08 15:25:00,55.0,39.6,30.41,South,181,3.0,0.0,56,0.00,,,0.00,WeatherTracker,2013-01-08 20:25:00,
2013-01-08 15:26:00,55.2,39.8,30.41,South,182,2.0,0.0,56,0.00,,,0.00,WeatherTracker,2013-01-08 20:26:00,
2013-01-08 15:28:00,55.3,39.4,30.41,South,177,1.0,0.0,55,0.00,,,0.00,WeatherTracker,2013-01-08 20:28:00,
2013-01-08 15:30:00,55.1,39.2,30.41,South,171,1.0,0.0,55,0.00,,,0.00,WeatherTracker,2013-01-08 20:30:00,
2013-01-08 15:31:00,55.0,39.6,30.41,South,171,1.0,0.0,56,0.00,,,0.00,WeatherTracker,2013-01-08 20:31:00,
2013-01-08 15:33:00,54.8,39.4,30.41,SSE,168,1.0,0.0,56,0.00,,,0.00,WeatherTracker,2013-01-08 20:33:00,
2013-01-08 15:35:00,54.6,39.7,30.41,SE,138,0.0,0.0,57,0.00,,,0.00,WeatherTracker,2013-01-08 20:35:00,
2013-01-08 15:36:00,54.6,39.2,30.41,SE,138,1.0,0.0,56,0.00,,,0.00,WeatherTracker,2013-01-08 20:36:00,
2013-01-08 15:37:00,54.5,39.1,30.41,SE,138,1.0,0.0,56,0.00,,,0.00,WeatherTracker,2013-01-08 20:37:00,
2013-01-08 15:40:00,54.6,39.2,30.41,SE,138,1.0,0.0,56,0.00,,,0.00,WeatherTracker,2013-01-08 20:40:00,
2013-01-08 15:41:00,54.6,39.2,30.41,SE,138,0.0,0.0,56,0.00,,,0.00,WeatherTracker,2013-01-08 20:41:00,
2013-01-08 15:42:00,54.6,39.2,30.41,SE,134,2.0,0.0,56,0.00,,,0.00,WeatherTracker,2013-01-08 20:42:00,
2013-01-08 15:46:00,54.6,39.2,30.41,SE,134,1.0,0.0,56,0.00,,,0.00,WeatherTracker,2013-01-08 20:46:00,
2013-01-08 15:48:00,54.7,39.3,30.41,SE,134,0.0,0.0,56,0.00,,,0.00,WeatherTracker,2013-01-08 20:48:00,
2013-01-08 15:51:00,54.9,39.5,30.41,SE,134,1.0,0.0,56,0.00,,,0.00,WeatherTracker,2013-01-08 20:51:00,
2013-01-08 15:53:00,55.0,39.6,30.42,SE,134,1.0,0.0,56,0.00,,,0.00,WeatherTracker,2013-01-08 20:53:00,
2013-01-08 15:57:00,55.0,39.1,30.41,SE,134,0.0,0.0,55,0.00,,,0.00,WeatherTracker,2013-01-08 20:57:00,
2013-01-08 15:58:00,54.9,39.0,30.41,SE,134,0.0,0.0,55,0.00,,,0.00,WeatherTracker,2013-01-08 20:58:00,
2013-01-08 15:59:00,54.8,38.9,30.41,SE,134,1.0,0.0,55,0.00,,,0.00,WeatherTracker,2013-01-08 20:59:00,
2013-01-08 16:02:00,54.6,39.2,30.41,SE,146,2.0,0.0,56,0.00,,,0.00,WeatherTracker,2013-01-08 21:02:00,
2013-01-08 16:03:00,54.6,39.2,30.41,SE,146,1.0,0.0,56,0.00,,,0.00,WeatherTracker,2013-01-08 21:03:00,
2013-01-08 16:04:00,54.6,39.2,30.41,SE,125,2.0,0.0,56,0.00,,,0.00,WeatherTracker,2013-01-08 21:04:00,
2013-01-08 16:08:00,54.5,39.1,30.42,ESE,123,0.0,0.0,56,0.00,,,0.00,WeatherTracker,2013-01-08 21:08:00,
2013-01-08 16:09:00,54.5,39.1,30.42,ESE,123,0.0,0.0,56,0.00,,,0.00,WeatherTracker,2013-01-08 21:09:00,
2013-01-08 16:13:00,54.4,39.5,30.42,ESE,121,2.0,0.0,57,0.00,,,0.00,WeatherTracker,2013-01-08 21:13:00,
2013-01-08 16:14:00,54.4,39.5,30.42,ESE,121,1.0,0.0,57,0.00,,,0.00,WeatherTracker,2013-01-08 21:14:00,
2013-01-08 16:15:00,54.3,39.4,30.42,ESE,121,2.0,0.0,57,0.00,,,0.00,WeatherTracker,2013-01-08 21:15:00,
2013-01-08 16:18:00,54.2,39.3,30.42,ESE,121,1.0,0.0,57,0.00,,,0.00,WeatherTracker,2013-01-08 21:18:00,
2013-01-08 16:19:00,54.2,39.3,30.42,ESE,121,0.0,0.0,57,0.00,,,0.00,WeatherTracker,2013-01-08 21:19:00,
2013-01-08 16:20:00,54.2,39.3,30.42,ESE,121,0.0,0.0,57,0.00,,,0.00,WeatherTracker,2013-01-08 21:20:00,
2013-01-08 16:24:00,54.3,39.4,30.41,ESE,121,2.0,0.0,57,0.00,,,0.00,WeatherTracker,2013-01-08 21:24:00,
2013-01-08 16:25:00,54.3,39.4,30.41,ESE,121,0.0,0.0,57,0.00,,,0.00,WeatherTracker,2013-01-08 21:25:00,
2013-01-08 16:26:00,54.4,39.5,30.41,ESE,121,1.0,0.0,57,0.00,,,0.00,WeatherTracker,2013-01-08 21:26:00,
2013-01-08 16:29:00,54.4,39.5,30.42,SE,129,2.0,0.0,57,0.00,,,0.00,WeatherTracker,2013-01-08 21:29:00,
2013-01-08 16:30:00,54.4,39.5,30.42,SE,129,1.0,0.0,57,0.00,,,0.00,WeatherTracker,2013-01-08 21:30:00,
2013-01-08 16:31:00,54.4,39.5,30.42,SE,129,1.0,0.0,57,0.00,,,0.00,WeatherTracker,2013-01-08 21:31:00,
2013-01-08 16:34:00,54.4,39.5,30.42,SE,129,0.0,0.0,57,0.00,,,0.00,WeatherTracker,2013-01-08 21:34:00,
2013-01-08 16:35:00,54.3,39.4,30.42,SE,129,2.0,0.0,57,0.00,,,0.00,WeatherTracker,2013-01-08 21:35:00,
2013-01-08 16:36:00,54.3,39.4,30.42,SE,129,0.0,0.0,57,0.00,,,0.00,WeatherTracker,2013-01-08 21:36:00,
2013-01-08 16:37:00,54.3,39.4,30.42,SE,129,1.0,0.0,57,0.00,,,0.00,WeatherTracker,2013-01-08 21:37:00,
2013-01-08 16:40:00,54.3,39.4,30.42,SE,129,0.0,0.0,57,0.00,,,0.00,WeatherTracker,2013-01-08 21:40:00,
2013-01-08 16:42:00,54.2,39.3,30.42,SE,129,0.0,0.0,57,0.00,,,0.00,WeatherTracker,2013-01-08 21:42:00,
2013-01-08 16:45:00,54.1,39.2,30.42,SE,129,0.0,0.0,57,0.00,,,0.00,WeatherTracker,2013-01-08 21:45:00,
2013-01-08 16:46:00,54.0,39.1,30.43,SE,129,1.0,0.0,57,0.00,,,0.00,WeatherTracker,2013-01-08 21:46:00,
2013-01-08 16:48:00,53.9,39.5,30.42,SE,129,1.0,0.0,58,0.00,,,0.00,WeatherTracker,2013-01-08 21:48:00,
2013-01-08 16:49:00,53.8,39.4,30.42,SE,129,1.0,0.0,58,0.00,,,0.00,WeatherTracker,2013-01-08 21:49:00,
2013-01-08 16:51:00,53.7,39.3,30.42,SE,129,1.0,0.0,58,0.00,,,0.00,WeatherTracker,2013-01-08 21:51:00,
2013-01-08 16:53:00,53.6,39.2,30.42,ESE,119,1.0,0.0,58,0.00,,,0.00,WeatherTracker,2013-01-08 21:53:00,
2013-01-08 16:56:00,53.4,39.4,30.42,ESE,105,1.0,0.0,59,0.00,,,0.00,WeatherTracker,2013-01-08 21:56:00,
2013-01-08 16:57:00,53.3,39.3,30.42,ESE,105,2.0,0.0,59,0.00,,,0.00,WeatherTracker,2013-01-08 21:57:00,
2013-01-08 16:59:00,53.2,39.2,30.42,ESE,115,2.0,0.0,59,0.00,,,0.00,WeatherTracker,2013-01-08 21:59:00,
2013-01-08 17:01:00,53.0,39.1,30.42,ESE,115,0.0,0.0,59,0.00,,,0.00,WeatherTracker,2013-01-08 22:01:00,
2013-01-08 17:02:00,53.0,39.1,30.42,ESE,115,0.0,0.0,59,0.00,,,0.00,WeatherTracker,2013-01-08 22:02:00,
2013-01-08 17:04:00,52.9,39.0,30.43,ESE,115,0.0,0.0,59,0.00,,,0.00,WeatherTracker,2013-01-08 22:04:00,
2013-01-08 17:07:00,52.8,38.9,30.42,ESE,115,1.0,0.0,59,0.00,,,0.00,WeatherTracker,2013-01-08 22:07:00,
2013-01-08 17:10:00,52.6,39.1,30.42,ESE,115,2.0,0.0,60,0.00,,,0.00,WeatherTracker,2013-01-08 22:10:00,
2013-01-08 17:12:00,52.4,38.9,30.43,ESE,115,0.0,0.0,60,0.00,,,0.00,WeatherTracker,2013-01-08 22:12:00,
2013-01-08 17:13:00,52.4,38.9,30.43,ESE,115,0.0,0.0,60,0.00,,,0.00,WeatherTracker,2013-01-08 22:13:00,
2013-01-08 17:15:00,52.3,38.8,30.43,ESE,115,1.0,0.0,60,0.00,,,0.00,WeatherTracker,2013-01-08 22:15:00,
2013-01-08 17:17:00,52.3,38.8,30.43,ESE,116,0.0,0.0,60,0.00,,,0.00,WeatherTracker,2013-01-08 22:17:00,
2013-01-08 17:18:00,52.3,38.8,30.43,ESE,115,0.0,0.0,60,0.00,,,0.00,WeatherTracker,2013-01-08 22:18:00,
2013-01-08 17:20:00,52.1,38.6,30.43,ESE,115,0.0,0.0,60,0.00,,,0.00,WeatherTracker,2013-01-08 22:20:00,
2013-01-08 17:22:00,51.9,38.9,30.43,ESE,115,0.0,0.0,61,0.00,,,0.00,WeatherTracker,2013-01-08 22:22:00,
2013-01-08 17:23:00,51.9,38.9,30.43,ESE,115,0.0,0.0,61,0.00,,,0.00,WeatherTracker,2013-01-08 22:23:00,
2013-01-08 17:25:00,51.7,38.7,30.43,ESE,115,0.0,0.0,61,0.00,,,0.00,WeatherTracker,2013-01-08 22:25:00,
2013-01-08 17:28:00,51.6,38.6,30.43,ESE,116,0.0,0.0,61,0.00,,,0.00,WeatherTracker,2013-01-08 22:28:00,
2013-01-08 17:30:00,51.5,38.5,30.43,ESE,115,0.0,0.0,61,0.00,,,0.00,WeatherTracker,2013-01-08 22:30:00,
2013-01-08 17:33:00,51.6,38.6,30.43,ESE,115,0.0,0.0,61,0.00,,,0.00,WeatherTracker,2013-01-08 22:33:00,
2013-01-08 17:34:00,51.6,38.6,30.43,ESE,115,0.0,0.0,61,0.00,,,0.00,WeatherTracker,2013-01-08 22:34:00,
2013-01-08 17:35:00,51.6,38.6,30.43,ESE,115,0.0,0.0,61,0.00,,,0.00,WeatherTracker,2013-01-08 22:35:00,
2013-01-08 17:38:00,51.7,38.7,30.43,ESE,115,0.0,0.0,61,0.00,,,0.00,WeatherTracker,2013-01-08 22:38:00,
2013-01-08 17:39:00,51.7,38.7,30.43,ESE,115,0.0,0.0,61,0.00,,,0.00,WeatherTracker,2013-01-08 22:39:00,
2013-01-08 17:42:00,51.7,38.7,30.43,ESE,115,0.0,0.0,61,0.00,,,0.00,WeatherTracker,2013-01-08 22:42:00,
2013-01-08 17:44:00,51.5,38.5,30.43,ESE,116,0.0,0.0,61,0.00,,,0.00,WeatherTracker,2013-01-08 22:44:00,
2013-01-08 17:46:00,51.4,38.8,30.43,ESE,115,2.0,0.0,62,0.00,,,0.00,WeatherTracker,2013-01-08 22:46:00,
2013-01-08 17:47:00,51.2,38.6,30.43,ESE,116,1.0,0.0,62,0.00,,,0.00,WeatherTracker,2013-01-08 22:47:00,
2013-01-08 17:49:00,51.1,38.5,30.43,ESE,115,0.0,0.0,62,0.00,,,0.00,WeatherTracker,2013-01-08 22:49:00,
2013-01-08 17:50:00,51.1,38.5,30.43,ESE,116,0.0,0.0,62,0.00,,,0.00,WeatherTracker,2013-01-08 22:50:00,
2013-01-08 17:51:00,51.2,38.6,30.43,ESE,115,0.0,0.0,62,0.00,,,0.00,WeatherTracker,2013-01-08 22:51:00,
2013-01-08 17:52:00,51.2,38.6,30.43,ESE,116,1.0,0.0,62,0.00,,,0.00,WeatherTracker,2013-01-08 22:52:00,
2013-01-08 17:54:00,51.2,38.6,30.43,ESE,115,0.0,0.0,62,0.00,,,0.00,WeatherTracker,2013-01-08 22:54:00,
2013-01-08 17:55:00,51.2,38.6,30.43,ESE,115,1.0,0.0,62,0.00,,,0.00,WeatherTracker,2013-01-08 22:55:00,
2013-01-08 17:57:00,51.2,38.6,30.43,ESE,115,0.0,0.0,62,0.00,,,0.00,WeatherTracker,2013-01-08 22:57:00,
2013-01-08 18:00:00,50.7,38.6,30.42,ESE,115,0.0,0.0,63,0.00,,,0.00,WeatherTracker,2013-01-08 23:00:00,
2013-01-08 18:02:00,50.0,38.7,30.42,ESE,115,1.0,0.0,65,0.00,,,0.00,WeatherTracker,2013-01-08 23:02:00,
2013-01-08 18:03:00,49.9,38.6,30.42,ESE,115,0.0,0.0,65,0.00,,,0.00,WeatherTracker,2013-01-08 23:03:00,
2013-01-08 18:05:00,49.5,38.6,30.42,ESE,115,0.0,0.0,66,0.00,,,0.00,WeatherTracker,2013-01-08 23:05:00,
2013-01-08 18:06:00,49.3,38.4,30.42,ESE,115,1.0,0.0,66,0.00,,,0.00,WeatherTracker,2013-01-08 23:06:00,
2013-01-08 18:08:00,48.7,38.6,30.43,ESE,115,1.0,0.0,68,0.00,,,0.00,WeatherTracker,2013-01-08 23:08:00,
2013-01-08 18:10:00,48.3,38.6,30.43,ESE,116,1.0,0.0,69,0.00,,,0.00,WeatherTracker,2013-01-08 23:10:00,
2013-01-08 18:11:00,48.1,38.4,30.43,ESE,115,2.0,0.0,69,0.00,,,0.00,WeatherTracker,2013-01-08 23:11:00,
2013-01-08 18:13:00,48.0,38.3,30.43,ESE,115,0.0,0.0,69,0.00,,,0.00,WeatherTracker,2013-01-08 23:13:00,
2013-01-08 18:14:00,48.0,38.3,30.43,ESE,115,1.0,0.0,69,0.00,,,0.00,WeatherTracker,2013-01-08 23:14:00,
2013-01-08 18:15:00,48.0,38.3,30.43,ESE,115,0.0,0.0,69,0.00,,,0.00,WeatherTracker,2013-01-08 23:15:00,
2013-01-08 18:16:00,48.1,38.4,30.43,ESE,115,1.0,0.0,69,0.00,,,0.00,WeatherTracker,2013-01-08 23:16:00,
2013-01-08 18:19:00,48.2,38.5,30.43,ESE,115,0.0,0.0,69,0.00,,,0.00,WeatherTracker,2013-01-08 23:19:00,
2013-01-08 18:20:00,48.2,38.5,30.43,ESE,115,0.0,0.0,69,0.00,,,0.00,WeatherTracker,2013-01-08 23:20:00,
2013-01-08 18:22:00,48.3,38.6,30.43,ESE,115,0.0,0.0,69,0.00,,,0.00,WeatherTracker,2013-01-08 23:22:00,
2013-01-08 18:24:00,48.5,38.4,30.43,ESE,115,0.0,0.0,68,0.00,,,0.00,WeatherTracker,2013-01-08 23:24:00,
2013-01-08 18:26:00,48.5,38.4,30.43,ESE,115,0.0,0.0,68,0.00,,,0.00,WeatherTracker,2013-01-08 23:26:00,
2013-01-08 18:27:00,48.4,38.3,30.42,ESE,115,1.0,0.0,68,0.00,,,0.00,WeatherTracker,2013-01-08 23:27:00,
2013-01-08 18:29:00,48.2,38.5,30.42,ESE,115,2.0,0.0,69,0.00,,,0.00,WeatherTracker,2013-01-08 23:29:00,
2013-01-08 18:31:00,48.0,38.3,30.42,ESE,115,0.0,0.0,69,0.00,,,0.00,WeatherTracker,2013-01-08 23:31:00,
2013-01-08 18:32:00,47.8,38.5,30.43,ESE,115,0.0,0.0,70,0.00,,,0.00,WeatherTracker,2013-01-08 23:32:00,
2013-01-08 18:35:00,47.6,38.3,30.43,ESE,115,1.0,0.0,70,0.00,,,0.00,WeatherTracker,2013-01-08 23:35:00,
2013-01-08 18:36:00,47.5,38.2,30.43,ESE,115,0.0,0.0,70,0.00,,,0.00,WeatherTracker,2013-01-08 23:36:00,
2013-01-08 18:37:00,47.4,38.5,30.43,ESE,115,0.0,0.0,71,0.00,,,0.00,WeatherTracker,2013-01-08 23:37:00,
2013-01-08 18:40:00,47.0,38.4,30.43,ESE,115,0.0,0.0,72,0.00,,,0.00,WeatherTracker,2013-01-08 23:40:00,
2013-01-08 18:41:00,46.9,38.4,30.43,ESE,115,0.0,0.0,72,0.00,,,0.00,WeatherTracker,2013-01-08 23:41:00,
2013-01-08 18:42:00,46.9,38.4,30.43,ESE,115,0.0,0.0,72,0.00,,,0.00,WeatherTracker,2013-01-08 23:42:00,
2013-01-08 18:43:00,46.9,38.4,30.43,ESE,115,0.0,0.0,72,0.00,,,0.00,WeatherTracker,2013-01-08 23:43:00,
2013-01-08 18:45:00,46.8,38.3,30.43,ESE,115,0.0,0.0,72,0.00,,,0.00,WeatherTracker,2013-01-08 23:45:00,
2013-01-08 18:47:00,46.8,38.3,30.43,ESE,115,0.0,0.0,72,0.00,,,0.00,WeatherTracker,2013-01-08 23:47:00,
2013-01-08 18:48:00,46.9,38.4,30.43,ESE,115,0.0,0.0,72,0.00,,,0.00,WeatherTracker,2013-01-08 23:48:00,
2013-01-08 18:50:00,46.7,38.2,30.43,ESE,115,0.0,0.0,72,0.00,,,0.00,WeatherTracker,2013-01-08 23:50:00,
2013-01-08 18:52:00,46.5,38.3,30.43,ESE,115,0.0,0.0,73,0.00,,,0.00,WeatherTracker,2013-01-08 23:52:00,
2013-01-08 18:53:00,46.4,38.2,30.43,ESE,115,1.0,0.0,73,0.00,,,0.00,WeatherTracker,2013-01-08 23:53:00,
2013-01-08 18:56:00,46.2,38.4,30.43,ESE,115,1.0,0.0,74,0.00,,,0.00,WeatherTracker,2013-01-08 23:56:00,
2013-01-08 18:57:00,46.1,37.9,30.43,ESE,115,0.0,0.0,73,0.00,,,0.00,WeatherTracker,2013-01-08 23:57:00,
2013-01-08 18:58:00,46.2,38.0,30.43,ESE,115,1.0,0.0,73,0.00,,,0.00,WeatherTracker,2013-01-08 23:58:00,
2013-01-08 18:59:00,46.2,38.0,30.43,ESE,115,0.0,0.0,73,0.00,,,0.00,WeatherTracker,2013-01-08 23:59:00,
2013-01-08 19:03:00,46.4,38.2,30.43,ESE,115,0.0,0.0,73,0.00,,,0.00,WeatherTracker,2013-01-09 00:03:00,
2013-01-08 19:04:00,46.4,38.2,30.43,ESE,115,0.0,0.0,73,0.00,,,0.00,WeatherTracker,2013-01-09 00:04:00,
2013-01-08 19:08:00,46.3,38.1,30.43,ESE,115,1.0,0.0,73,0.00,,,0.00,WeatherTracker,2013-01-09 00:08:00,
2013-01-08 19:09:00,46.3,38.1,30.43,ESE,115,0.0,0.0,73,0.00,,,0.00,WeatherTracker,2013-01-09 00:09:00,
2013-01-08 19:10:00,46.3,38.1,30.43,ESE,115,0.0,0.0,73,0.00,,,0.00,WeatherTracker,2013-01-09 00:10:00,
2013-01-08 19:13:00,46.4,38.2,30.43,ESE,115,0.0,0.0,73,0.00,,,0.00,WeatherTracker,2013-01-09 00:13:00,
2013-01-08 19:14:00,46.3,38.1,30.43,ESE,115,0.0,0.0,73,0.00,,,0.00,WeatherTracker,2013-01-09 00:14:00,
2013-01-08 19:15:00,46.3,38.1,30.43,ESE,115,0.0,0.0,73,0.00,,,0.00,WeatherTracker,2013-01-09 00:15:00,
2013-01-08 19:19:00,46.3,38.1,30.43,ESE,115,0.0,0.0,73,0.00,,,0.00,WeatherTracker,2013-01-09 00:19:00,
2013-01-08 19:20:00,46.2,38.0,30.43,ESE,115,2.0,0.0,73,0.00,,,0.00,WeatherTracker,2013-01-09 00:20:00,
2013-01-08 19:24:00,45.5,38.0,30.44,ESE,116,0.0,0.0,75,0.00,,,0.00,WeatherTracker,2013-01-09 00:24:00,
2013-01-08 19:25:00,45.3,37.9,30.44,ESE,116,0.0,0.0,75,0.00,,,0.00,WeatherTracker,2013-01-09 00:25:00,
2013-01-08 19:29:00,44.6,37.8,30.44,ESE,116,0.0,0.0,77,0.00,,,0.00,WeatherTracker,2013-01-09 00:29:00,
2013-01-08 19:30:00,44.6,37.8,30.44,ESE,116,0.0,0.0,77,0.00,,,0.00,WeatherTracker,2013-01-09 00:30:00,
2013-01-08 19:31:00,44.3,37.6,30.44,ESE,116,0.0,0.0,77,0.00,,,0.00,WeatherTracker,2013-01-09 00:31:00,
2013-01-08 19:35:00,44.1,37.7,30.44,ESE,116,0.0,0.0,78,0.00,,,0.00,WeatherTracker,2013-01-09 00:35:00,
2013-01-08 19:36:00,44.2,37.8,30.44,ESE,116,0.0,0.0,78,0.00,,,0.00,WeatherTracker,2013-01-09 00:36:00,
2013-01-08 19:37:00,44.3,37.9,30.44,ESE,116,0.0,0.0,78,0.00,,,0.00,WeatherTracker,2013-01-09 00:37:00,
2013-01-08 19:40:00,44.7,37.9,30.44,ESE,116,0.0,0.0,77,0.00,,,0.00,WeatherTracker,2013-01-09 00:40:00,
2013-01-08 19:41:00,44.8,38.0,30.44,ESE,116,0.0,0.0,77,0.00,,,0.00,WeatherTracker,2013-01-09 00:41:00,
2013-01-08 19:42:00,44.8,38.0,30.44,ESE,116,1.0,0.0,77,0.00,,,0.00,WeatherTracker,2013-01-09 00:42:00,
2013-01-08 19:45:00,44.5,38.1,30.44,ESE,116,0.0,0.0,78,0.00,,,0.00,WeatherTracker,2013-01-09 00:45:00,
2013-01-08 19:46:00,44.5,38.1,30.44,ESE,116,0.0,0.0,78,0.00,,,0.00,WeatherTracker,2013-01-09 00:46:00,
2013-01-08 19:47:00,44.4,38.0,30.44,ESE,116,0.0,0.0,78,0.00,,,0.00,WeatherTracker,2013-01-09 00:47:00,
2013-01-08 19:50:00,44.7,37.9,30.44,ESE,116,0.0,0.0,77,0.00,,,0.00,WeatherTracker,2013-01-09 00:50:00,
2013-01-08 19:51:00,44.8,38.0,30.44,ESE,116,0.0,0.0,77,0.00,,,0.00,WeatherTracker,2013-01-09 00:51:00,
2013-01-08 19:52:00,44.9,38.1,30.44,ESE,116,0.0,0.0,77,0.00,,,0.00,WeatherTracker,2013-01-09 00:52:00,
2013-01-08 19:54:00,44.9,38.1,30.44,ESE,116,1.0,0.0,77,0.00,,,0.00,WeatherTracker,2013-01-09 00:54:00,
2013-01-08 19:56:00,44.9,38.1,30.44,ESE,116,2.0,0.0,77,0.00,,,0.00,WeatherTracker,2013-01-09 00:56:00,
2013-01-08 19:57:00,44.8,38.4,30.43,ESE,116,0.0,0.0,78,0.00,,,0.00,WeatherTracker,2013-01-09 00:57:00,
2013-01-08 20:00:00,44.7,38.3,30.43,ESE,116,0.0,0.0,78,0.00,,,0.00,WeatherTracker,2013-01-09 01:00:00,
2013-01-08 20:02:00,44.8,38.0,30.43,ESE,116,0.0,0.0,77,0.00,,,0.00,WeatherTracker,2013-01-09 01:02:00,
2013-01-08 20:06:00,44.7,38.3,30.43,ESE,116,0.0,0.0,78,0.00,,,0.00,WeatherTracker,2013-01-09 01:06:00,
2013-01-08 20:07:00,44.7,38.3,30.43,ESE,116,0.0,0.0,78,0.00,,,0.00,WeatherTracker,2013-01-09 01:07:00,
2013-01-08 20:08:00,44.7,38.3,30.43,ESE,116,0.0,0.0,78,0.00,,,0.00,WeatherTracker,2013-01-09 01:08:00,
2013-01-08 20:12:00,44.5,38.1,30.43,ESE,116,0.0,0.0,78,0.00,,,0.00,WeatherTracker,2013-01-09 01:12:00,
2013-01-08 20:13:00,44.5,38.1,30.43,ESE,116,1.0,0.0,78,0.00,,,0.00,WeatherTracker,2013-01-09 01:13:00,
2013-01-08 20:17:00,44.2,38.1,30.44,ESE,116,0.0,0.0,79,0.00,,,0.00,WeatherTracker,2013-01-09 01:17:00,
2013-01-08 20:18:00,44.1,38.0,30.44,ESE,116,0.0,0.0,79,0.00,,,0.00,WeatherTracker,2013-01-09 01:18:00,
2013-01-08 20:19:00,43.9,38.1,30.44,ESE,116,0.0,0.0,80,0.00,,,0.00,WeatherTracker,2013-01-09 01:19:00,
2013-01-08 20:22:00,44.0,37.9,30.44,ESE,116,0.0,0.0,79,0.00,,,0.00,WeatherTracker,2013-01-09 01:22:00,
2013-01-08 20:23:00,44.1,38.0,30.44,ESE,116,0.0,0.0,79,0.00,,,0.00,WeatherTracker,2013-01-09 01:23:00,
2013-01-08 20:24:00,44.1,38.3,30.44,ESE,116,0.0,0.0,80,0.00,,,0.00,WeatherTracker,2013-01-09 01:24:00,
2013-01-08 20:28:00,43.9,38.1,30.44,ESE,116,0.0,0.0,80,0.00,,,0.00,WeatherTracker,2013-01-09 01:28:00,
2013-01-08 20:30:00,44.0,38.2,30.44,ESE,116,0.0,0.0,80,0.00,,,0.00,WeatherTracker,2013-01-09 01:30:00,
2013-01-08 20:33:00,44.4,38.3,30.44,ESE,116,0.0,0.0,79,0.00,,,0.00,WeatherTracker,2013-01-09 01:33:00,
2013-01-08 20:34:00,44.4,38.3,30.44,ESE,116,0.0,0.0,79,0.00,,,0.00,WeatherTracker,2013-01-09 01:34:00,
2013-01-08 20:35:00,44.4,38.3,30.44,ESE,116,0.0,0.0,79,0.00,,,0.00,WeatherTracker,2013-01-09 01:35:00,
2013-01-08 20:38:00,44.2,38.4,30.44,ESE,116,0.0,0.0,80,0.00,,,0.00,WeatherTracker,2013-01-09 01:38:00,
2013-01-08 20:39:00,44.2,38.4,30.43,ESE,116,0.0,0.0,80,0.00,,,0.00,WeatherTracker,2013-01-09 01:39:00,
2013-01-08 20:40:00,44.2,38.4,30.43,ESE,116,0.0,0.0,80,0.00,,,0.00,WeatherTracker,2013-01-09 01:40:00,
2013-01-08 20:43:00,44.1,38.3,30.43,ESE,116,0.0,0.0,80,0.00,,,0.00,WeatherTracker,2013-01-09 01:43:00,
2013-01-08 20:44:00,44.0,38.2,30.43,ESE,116,0.0,0.0,80,0.00,,,0.00,WeatherTracker,2013-01-09 01:44:00,
2013-01-08 20:45:00,44.0,38.2,30.44,ESE,116,0.0,0.0,80,0.00,,,0.00,WeatherTracker,2013-01-09 01:45:00,
2013-01-08 20:48:00,43.9,38.5,30.44,ESE,116,0.0,0.0,81,0.00,,,0.00,WeatherTracker,2013-01-09 01:48:00,
2013-01-08 20:50:00,43.8,38.4,30.44,ESE,116,0.0,0.0,81,0.00,,,0.00,WeatherTracker,2013-01-09 01:50:00,
2013-01-08 20:51:00,43.9,38.5,30.44,ESE,116,0.0,0.0,81,0.00,,,0.00,WeatherTracker,2013-01-09 01:51:00,
2013-01-08 20:53:00,43.9,38.5,30.44,ESE,116,0.0,0.0,81,0.00,,,0.00,WeatherTracker,2013-01-09 01:53:00,
2013-01-08 20:55:00,43.8,38.4,30.44,ESE,116,0.0,0.0,81,0.00,,,0.00,WeatherTracker,2013-01-09 01:55:00,
2013-01-08 20:56:00,43.8,38.4,30.44,ESE,116,0.0,0.0,81,0.00,,,0.00,WeatherTracker,2013-01-09 01:56:00,
2013-01-08 20:59:00,43.8,38.4,30.44,ESE,116,0.0,0.0,81,0.00,,,0.00,WeatherTracker,2013-01-09 01:59:00,
2013-01-08 21:01:00,43.8,38.4,30.44,ESE,116,0.0,0.0,81,0.00,,,0.00,WeatherTracker,2013-01-09 02:01:00,
2013-01-08 21:02:00,43.8,38.4,30.43,ESE,116,0.0,0.0,81,0.00,,,0.00,WeatherTracker,2013-01-09 02:02:00,
2013-01-08 21:04:00,43.7,38.3,30.44,ESE,116,0.0,0.0,81,0.00,,,0.00,WeatherTracker,2013-01-09 02:04:00,
2013-01-08 21:07:00,43.7,38.3,30.44,ESE,116,0.0,0.0,81,0.00,,,0.00,WeatherTracker,2013-01-09 02:07:00,
2013-01-08 21:08:00,43.6,38.2,30.44,ESE,116,0.0,0.0,81,0.00,,,0.00,WeatherTracker,2013-01-09 02:08:00,
2013-01-08 21:09:00,43.5,38.1,30.44,ESE,116,0.0,0.0,81,0.00,,,0.00,WeatherTracker,2013-01-09 02:09:00,
2013-01-08 21:12:00,43.3,38.2,30.44,ESE,116,0.0,0.0,82,0.00,,,0.00,WeatherTracker,2013-01-09 02:12:00,
2013-01-08 21:13:00,43.3,38.2,30.44,ESE,116,0.0,0.0,82,0.00,,,0.00,WeatherTracker,2013-01-09 02:13:00,
2013-01-08 21:14:00,43.3,38.2,30.44,ESE,116,0.0,0.0,82,0.00,,,0.00,WeatherTracker,2013-01-09 02:14:00,
2013-01-08 21:17:00,43.2,38.1,30.43,ESE,116,0.0,0.0,82,0.00,,,0.00,WeatherTracker,2013-01-09 02:17:00,
2013-01-08 21:19:00,43.2,38.1,30.44,ESE,116,0.0,0.0,82,0.00,,,0.00,WeatherTracker,2013-01-09 02:19:00,
2013-01-08 21:20:00,43.3,37.9,30.44,ESE,116,0.0,0.0,81,0.00,,,0.00,WeatherTracker,2013-01-09 02:20:00,
2013-01-08 21:23:00,43.5,38.1,30.44,ESE,116,0.0,0.0,81,0.00,,,0.00,WeatherTracker,2013-01-09 02:23:00,
2013-01-08 21:24:00,43.6,38.2,30.44,ESE,116,0.0,0.0,81,0.00,,,0.00,WeatherTracker,2013-01-09 02:24:00,
2013-01-08 21:25:00,43.6,38.2,30.44,ESE,116,0.0,0.0,81,0.00,,,0.00,WeatherTracker,2013-01-09 02:25:00,
2013-01-08 21:27:00,43.6,38.2,30.44,ESE,116,0.0,0.0,81,0.00,,,0.00,WeatherTracker,2013-01-09 02:27:00,
2013-01-08 21:28:00,43.6,38.2,30.44,ESE,116,0.0,0.0,81,0.00,,,0.00,WeatherTracker,2013-01-09 02:28:00,
2013-01-08 21:30:00,43.6,38.2,30.44,ESE,116,0.0,0.0,81,0.00,,,0.00,WeatherTracker,2013-01-09 02:30:00,
2013-01-08 21:33:00,43.5,38.1,30.44,ESE,116,0.0,0.0,81,0.00,,,0.00,WeatherTracker,2013-01-09 02:33:00,
2013-01-08 21:34:00,43.5,38.1,30.44,ESE,116,0.0,0.0,81,0.00,,,0.00,WeatherTracker,2013-01-09 02:34:00,
2013-01-08 21:35:00,43.5,38.1,30.44,ESE,116,0.0,0.0,81,0.00,,,0.00,WeatherTracker,2013-01-09 02:35:00,
2013-01-08 21:36:00,43.4,38.0,30.44,ESE,116,0.0,0.0,81,0.00,,,0.00,WeatherTracker,2013-01-09 02:36:00,
2013-01-08 21:39:00,43.3,38.2,30.44,ESE,116,1.0,0.0,82,0.00,,,0.00,WeatherTracker,2013-01-09 02:39:00,
2013-01-08 21:40:00,43.2,38.1,30.44,ESE,116,2.0,0.0,82,0.00,,,0.00,WeatherTracker,2013-01-09 02:40:00,
2013-01-08 21:41:00,43.0,37.9,30.44,ESE,116,1.0,0.0,82,0.00,,,0.00,WeatherTracker,2013-01-09 02:41:00,
2013-01-08 21:45:00,42.7,37.9,30.44,ESE,116,0.0,0.0,83,0.00,,,0.00,WeatherTracker,2013-01-09 02:45:00,
2013-01-08 21:46:00,42.7,37.9,30.44,ESE,116,0.0,0.0,83,0.00,,,0.00,WeatherTracker,2013-01-09 02:46:00,
2013-01-08 21:47:00,42.7,37.9,30.44,ESE,116,0.0,0.0,83,0.00,,,0.00,WeatherTracker,2013-01-09 02:47:00,
2013-01-08 21:51:00,42.5,38.0,30.44,ESE,116,0.0,0.0,84,0.00,,,0.00,WeatherTracker,2013-01-09 02:51:00,
2013-01-08 21:52:00,42.5,38.0,30.44,ESE,116,1.0,0.0,84,0.00,,,0.00,WeatherTracker,2013-01-09 02:52:00,
2013-01-08 21:56:00,42.5,38.0,30.44,ESE,116,0.0,0.0,84,0.00,,,0.00,WeatherTracker,2013-01-09 02:56:00,
2013-01-08 21:57:00,42.5,38.0,30.44,ESE,116,0.0,0.0,84,0.00,,,0.00,WeatherTracker,2013-01-09 02:57:00,
2013-01-08 21:58:00,42.5,38.0,30.44,ESE,116,0.0,0.0,84,0.00,,,0.00,WeatherTracker,2013-01-09 02:58:00,
2013-01-08 22:01:00,42.7,37.9,30.43,ESE,116,0.0,0.0,83,0.00,,,0.00,WeatherTracker,2013-01-09 03:01:00,
2013-01-08 22:02:00,42.8,38.0,30.43,ESE,116,0.0,0.0,83,0.00,,,0.00,WeatherTracker,2013-01-09 03:02:00,
2013-01-08 22:03:00,42.9,38.1,30.43,ESE,116,0.0,0.0,83,0.00,,,0.00,WeatherTracker,2013-01-09 03:03:00,
2013-01-08 22:06:00,43.0,38.2,30.43,ESE,116,1.0,0.0,83,0.00,,,0.00,WeatherTracker,2013-01-09 03:06:00,
2013-01-08 22:07:00,43.0,38.2,30.43,ESE,116,0.0,0.0,83,0.00,,,0.00,WeatherTracker,2013-01-09 03:07:00,
2013-01-08 22:08:00,43.1,38.3,30.43,ESE,116,0.0,0.0,83,0.00,,,0.00,WeatherTracker,2013-01-09 03:08:00,
2013-01-08 22:12:00,43.3,38.2,30.43,ESE,116,0.0,0.0,82,0.00,,,0.00,WeatherTracker,2013-01-09 03:12:00,
2013-01-08 22:13:00,43.3,38.2,30.43,ESE,116,0.0,0.0,82,0.00,,,0.00,WeatherTracker,2013-01-09 03:13:00,
2013-01-08 22:18:00,43.5,38.4,30.43,ESE,116,0.0,0.0,82,0.00,,,0.00,WeatherTracker,2013-01-09 03:18:00,
2013-01-08 22:19:00,43.4,38.3,30.43,ESE,116,1.0,0.0,82,0.00,,,0.00,WeatherTracker,2013-01-09 03:19:00,
2013-01-08 22:23:00,43.3,38.5,30.43,ESE,116,0.0,0.0,83,0.00,,,0.00,WeatherTracker,2013-01-09 03:23:00,
2013-01-08 22:24:00,43.2,38.4,30.43,ESE,116,0.0,0.0,83,0.00,,,0.00,WeatherTracker,2013-01-09 03:24:00,
2013-01-08 22:29:00,43.4,38.6,30.43,ESE,116,0.0,0.0,83,0.00,,,0.00,WeatherTracker,2013-01-09 03:29:00,
2013-01-08 22:30:00,43.4,38.6,30.43,ESE,116,0.0,0.0,83,0.00,,,0.00,WeatherTracker,2013-01-09 03:30:00,
2013-01-08 22:34:00,43.3,38.5,30.43,ESE,116,0.0,0.0,83,0.00,,,0.00,WeatherTracker,2013-01-09 03:34:00,
2013-01-08 22:35:00,43.3,38.5,30.44,ESE,116,0.0,0.0,83,0.00,,,0.00,WeatherTracker,2013-01-09 03:35:00,
2013-01-08 22:39:00,43.2,38.7,30.44,ESE,116,1.0,0.0,84,0.00,,,0.00,WeatherTracker,2013-01-09 03:39:00,
2013-01-08 22:40:00,43.2,38.7,30.44,ESE,116,1.0,0.0,84,0.00,,,0.00,WeatherTracker,2013-01-09 03:40:00,
2013-01-08 22:45:00,43.1,38.6,30.44,ESE,116,0.0,0.0,84,0.00,,,0.00,WeatherTracker,2013-01-09 03:45:00,
2013-01-08 22:46:00,43.0,38.5,30.44,ESE,116,0.0,0.0,84,0.00,,,0.00,WeatherTracker,2013-01-09 03:46:00,
2013-01-08 22:50:00,43.1,38.3,30.43,ESE,116,0.0,0.0,83,0.00,,,0.00,WeatherTracker,2013-01-09 03:50:00,
2013-01-08 22:51:00,43.1,38.3,30.43,ESE,116,0.0,0.0,83,0.00,,,0.00,WeatherTracker,2013-01-09 03:51:00,
2013-01-08 22:55:00,43.4,38.3,30.44,ESE,116,0.0,0.0,82,0.00,,,0.00,WeatherTracker,2013-01-09 03:55:00,
2013-01-08 22:56:00,43.4,38.3,30.44,ESE,116,0.0,0.0,82,0.00,,,0.00,WeatherTracker,2013-01-09 03:56:00,
2013-01-08 22:57:00,43.5,38.4,30.44,ESE,116,0.0,0.0,82,0.00,,,0.00,WeatherTracker,2013-01-09 03:57:00,
2013-01-08 23:00:00,43.8,38.7,30.44,ESE,116,0.0,0.0,82,0.00,,,0.00,WeatherTracker,2013-01-09 04:00:00,
2013-01-08 23:01:00,43.8,38.7,30.44,ESE,116,0.0,0.0,82,0.00,,,0.00,WeatherTracker,2013-01-09 04:01:00,
2013-01-08 23:02:00,43.8,38.7,30.44,ESE,116,0.0,0.0,82,0.00,,,0.00,WeatherTracker,2013-01-09 04:02:00,
2013-01-08 23:05:00,43.8,38.7,30.44,ESE,116,0.0,0.0,82,0.00,,,0.00,WeatherTracker,2013-01-09 04:05:00,
2013-01-08 23:06:00,43.8,38.7,30.44,ESE,116,0.0,0.0,82,0.00,,,0.00,WeatherTracker,2013-01-09 04:06:00,
2013-01-08 23:07:00,43.8,38.7,30.44,ESE,116,0.0,0.0,82,0.00,,,0.00,WeatherTracker,2013-01-09 04:07:00,
2013-01-08 23:11:00,43.7,38.6,30.44,ESE,116,1.0,0.0,82,0.00,,,0.00,WeatherTracker,2013-01-09 04:11:00,
2013-01-08 23:12:00,43.6,38.8,30.44,ESE,116,1.0,0.0,83,0.00,,,0.00,WeatherTracker,2013-01-09 04:12:00,
2013-01-08 23:13:00,43.6,38.8,30.44,ESE,116,1.0,0.0,83,0.00,,,0.00,WeatherTracker,2013-01-09 04:13:00,
2013-01-08 23:17:00,43.4,38.6,30.44,ESE,116,0.0,0.0,83,0.00,,,0.00,WeatherTracker,2013-01-09 04:17:00,
2013-01-08 23:18:00,43.4,38.9,30.44,ESE,116,0.0,0.0,84,0.00,,,0.00,WeatherTracker,2013-01-09 04:18:00,
2013-01-08 23:22:00,43.4,38.9,30.44,ESE,116,0.0,0.0,84,0.00,,,0.00,WeatherTracker,2013-01-09 04:22:00,
2013-01-08 23:23:00,43.3,38.8,30.44,ESE,116,0.0,0.0,84,0.00,,,0.00,WeatherTracker,2013-01-09 04:23:00,
2013-01-08 23:27:00,43.2,38.7,30.44,ESE,116,0.0,0.0,84,0.00,,,0.00,WeatherTracker,2013-01-09 04:27:00,
2013-01-08 23:28:00,43.2,38.7,30.44,ESE,116,0.0,0.0,84,0.00,,,0.00,WeatherTracker,2013-01-09 04:28:00,
2013-01-08 23:32:00,43.1,38.9,30.44,ESE,116,0.0,0.0,85,0.00,,,0.00,WeatherTracker,2013-01-09 04:32:00,
2013-01-08 23:33:00,43.1,38.9,30.44,ESE,116,0.0,0.0,85,0.00,,,0.00,WeatherTracker,2013-01-09 04:33:00,
2013-01-08 23:34:00,43.1,38.9,30.44,ESE,116,0.0,0.0,85,0.00,,,0.00,WeatherTracker,2013-01-09 04:34:00,
2013-01-08 23:37:00,43.1,38.9,30.44,ESE,116,0.0,0.0,85,0.00,,,0.00,WeatherTracker,2013-01-09 04:37:00,
2013-01-08 23:38:00,43.1,38.9,30.44,ESE,116,0.0,0.0,85,0.00,,,0.00,WeatherTracker,2013-01-09 04:38:00,
2013-01-08 23:39:00,43.1,38.9,30.44,ESE,116,0.0,0.0,85,0.00,,,0.00,WeatherTracker,2013-01-09 04:39:00,
2013-01-08 23:43:00,43.1,38.6,30.44,ESE,116,0.0,0.0,84,0.00,,,0.00,WeatherTracker,2013-01-09 04:43:00,
2013-01-08 23:44:00,43.2,38.7,30.44,ESE,116,0.0,0.0,84,0.00,,,0.00,WeatherTracker,2013-01-09 04:44:00,
2013-01-08 23:48:00,43.2,38.7,30.44,ESE,116,0.0,0.0,84,0.00,,,0.00,WeatherTracker,2013-01-09 04:48:00,
2013-01-08 23:49:00,43.2,38.7,30.44,ESE,116,0.0,0.0,84,0.00,,,0.00,WeatherTracker,2013-01-09 04:49:00,
2013-01-08 23:50:00,43.1,38.6,30.44,ESE,116,0.0,0.0,84,0.00,,,0.00,WeatherTracker,2013-01-09 04:50:00,
2013-01-08 23:54:00,42.9,38.7,30.44,ESE,116,1.0,0.0,85,0.00,,,0.00,WeatherTracker,2013-01-09 04:54:00,
2013-01-08 23:55:00,42.8,38.6,30.44,ESE,116,1.0,0.0,85,0.00,,,0.00,WeatherTracker,2013-01-09 04:55:00,
2013-01-08 23:59:00,42.4,38.5,30.44,ESE,116,0.0,0.0,86,0.00,,,0.00,WeatherTracker,2013-01-09 04:59:00,